<?xml version='1.0' encoding='UTF-8'?><gpx version="1.1" creator="JPX - https://github.com/jenetics/jpx" xmlns="http://www.topografix.com/GPX/1/1"><trk><trkseg><trkpt lat="43.91522414986409" lon="4.511923659597069"><ele>117.0</ele><time>2026-04-05T15:06:11.143Z</time></trkpt><trkpt lat="43.915230352472435" lon="4.511815700684219"><ele>117.0</ele><time>2026-04-05T15:06:13.141Z</time></trkpt><trkpt lat="43.91529577322669" lon="4.511812264103919"><ele>117.0</ele><time>2026-04-05T15:06:16Z</time></trkpt><trkpt lat="43.91534193367367" lon="4.511952526560752"><ele>117.0</ele><time>2026-04-05T15:06:20Z</time></trkpt><trkpt lat="43.91535154502372" lon="4.512092894643226"><ele>117.0</ele><time>2026-04-05T15:06:22Z</time></trkpt><trkpt lat="43.91537146329704" lon="4.512191480918586"><ele>117.0</ele><time>2026-04-05T15:06:23Z</time></trkpt><trkpt lat="43.91540698299224" lon="4.51230969531759"><ele>116.83333333333333</ele><time>2026-04-05T15:06:24Z</time></trkpt><trkpt lat="43.91540552681347" lon="4.5124284820946325"><ele>116.66666666666666</ele><time>2026-04-05T15:06:25Z</time></trkpt><trkpt lat="43.91543519285093" lon="4.512552898476557"><ele>116.5</ele><time>2026-04-05T15:06:26Z</time></trkpt><trkpt lat="43.91545296054137" lon="4.512639902514763"><ele>116.33333333333333</ele><time>2026-04-05T15:06:27Z</time></trkpt><trkpt lat="43.91549807223894" lon="4.512714413891276"><ele>116.16666666666666</ele><time>2026-04-05T15:06:28Z</time></trkpt><trkpt lat="43.91551243795333" lon="4.512806980739815"><ele>116.0</ele><time>2026-04-05T15:06:29Z</time></trkpt><trkpt lat="43.915515312984255" lon="4.5129213913175095"><ele>115.99999999999999</ele><time>2026-04-05T15:06:31Z</time></trkpt><trkpt lat="43.91549254074092" lon="4.513035102944483"><ele>116.0</ele><time>2026-04-05T15:06:33Z</time></trkpt><trkpt lat="43.91547754101773" lon="4.513127842451995"><ele>116.0</ele><time>2026-04-05T15:06:34Z</time></trkpt><trkpt lat="43.91545484715187" lon="4.513253222721668"><ele>116.0</ele><time>2026-04-05T15:06:35Z</time></trkpt><trkpt lat="43.91543144801426" lon="4.5133624135504515"><ele>115.99999999999999</ele><time>2026-04-05T15:06:36Z</time></trkpt><trkpt lat="43.91542216418239" lon="4.513494407407477"><ele>116.0</ele><time>2026-04-05T15:06:37Z</time></trkpt><trkpt lat="43.915420629911274" lon="4.513603506152412"><ele>116.8</ele><time>2026-04-05T15:06:38Z</time></trkpt><trkpt lat="43.915417197168225" lon="4.513752646632868"><ele>117.6</ele><time>2026-04-05T15:06:40Z</time></trkpt><trkpt lat="43.91541997298868" lon="4.5138440491989265"><ele>118.4</ele><time>2026-04-05T15:06:41Z</time></trkpt><trkpt lat="43.91543886805935" lon="4.513965726760272"><ele>119.2</ele><time>2026-04-05T15:06:42Z</time></trkpt><trkpt lat="43.915484975473305" lon="4.514077567479402"><ele>120.0</ele><time>2026-04-05T15:06:43Z</time></trkpt><trkpt lat="43.91548411097128" lon="4.5142151708712"><ele>120.0</ele><time>2026-04-05T15:06:44Z</time></trkpt><trkpt lat="43.91548255023964" lon="4.514327891212065"><ele>120.0</ele><time>2026-04-05T15:06:45Z</time></trkpt><trkpt lat="43.91547820804009" lon="4.5144273012101745"><ele>120.0</ele><time>2026-04-05T15:06:46Z</time></trkpt><trkpt lat="43.91547602661716" lon="4.514525242656797"><ele>120.0</ele><time>2026-04-05T15:06:47Z</time></trkpt><trkpt lat="43.915480192328125" lon="4.514721635017224"><ele>120.0</ele><time>2026-04-05T15:06:49Z</time></trkpt><trkpt lat="43.91548357339188" lon="4.514854959937401"><ele>120.16666666666667</ele><time>2026-04-05T15:06:50Z</time></trkpt><trkpt lat="43.91548891303658" lon="4.514968695184896"><ele>120.33333333333334</ele><time>2026-04-05T15:06:50.999Z</time></trkpt><trkpt lat="43.91549369252238" lon="4.51507216283814"><ele>120.5</ele><time>2026-04-05T15:06:51.999Z</time></trkpt><trkpt lat="43.91549861562848" lon="4.515178739656051"><ele>120.66666666666667</ele><time>2026-04-05T15:06:52.999Z</time></trkpt><trkpt lat="43.91550049018032" lon="4.515282530061524"><ele>120.83333333333334</ele><time>2026-04-05T15:06:53.999Z</time></trkpt><trkpt lat="43.91552090107745" lon="4.515383804857527"><ele>121.0</ele><time>2026-04-05T15:06:54.999Z</time></trkpt><trkpt lat="43.91552960109711" lon="4.515489980766055"><ele>121.00000000000001</ele><time>2026-04-05T15:06:55.999Z</time></trkpt><trkpt lat="43.91554596314033" lon="4.515591780114257"><ele>121.0</ele><time>2026-04-05T15:06:56.999Z</time></trkpt><trkpt lat="43.91554904280857" lon="4.515702729621977"><ele>121.0</ele><time>2026-04-05T15:06:57.999Z</time></trkpt><trkpt lat="43.9155699027916" lon="4.5158060260678425"><ele>121.0</ele><time>2026-04-05T15:06:58.999Z</time></trkpt><trkpt lat="43.915594008651674" lon="4.51591830918465"><ele>121.00000000000001</ele><time>2026-04-05T15:06:59.999Z</time></trkpt><trkpt lat="43.915617434849125" lon="4.516019881867793"><ele>121.0</ele><time>2026-04-05T15:07:00.999Z</time></trkpt><trkpt lat="43.91564423780102" lon="4.516121525905534"><ele>121.00000000000001</ele><time>2026-04-05T15:07:01.999Z</time></trkpt><trkpt lat="43.91569068557352" lon="4.516211945622644"><ele>121.0</ele><time>2026-04-05T15:07:02.999Z</time></trkpt><trkpt lat="43.91573252023894" lon="4.516301872775744"><ele>121.0</ele><time>2026-04-05T15:07:03.999Z</time></trkpt><trkpt lat="43.915772561854126" lon="4.516381840350706"><ele>121.0</ele><time>2026-04-05T15:07:04.999Z</time></trkpt><trkpt lat="43.91585791900845" lon="4.516510631197329"><ele>121.00000000000001</ele><time>2026-04-05T15:07:06.999Z</time></trkpt><trkpt lat="43.91591859411041" lon="4.5166128804247245"><ele>121.0</ele><time>2026-04-05T15:07:08.999Z</time></trkpt><trkpt lat="43.9158235533909" lon="4.516715978854135"><ele>120.50000000000001</ele><time>2026-04-05T15:07:09.999Z</time></trkpt><trkpt lat="43.91580196871891" lon="4.5168438049568005"><ele>120.0</ele><time>2026-04-05T15:07:11.999Z</time></trkpt><trkpt lat="43.915790156644825" lon="4.516984197831843"><ele>119.5</ele><time>2026-04-05T15:07:13.999Z</time></trkpt><trkpt lat="43.91577775848744" lon="4.517071412458089"><ele>119.0</ele><time>2026-04-05T15:07:14.999Z</time></trkpt><trkpt lat="43.91572865721182" lon="4.5172266006952135"><ele>118.50000000000001</ele><time>2026-04-05T15:07:16.999Z</time></trkpt><trkpt lat="43.91567029193415" lon="4.517259953372745"><ele>118.0</ele><time>2026-04-05T15:07:17.999Z</time></trkpt><trkpt lat="43.91560322787429" lon="4.517300092410691"><ele>117.4</ele><time>2026-04-05T15:07:18.999Z</time></trkpt><trkpt lat="43.91552425529178" lon="4.517348245183917"><ele>116.80000000000001</ele><time>2026-04-05T15:07:19.999Z</time></trkpt><trkpt lat="43.915463068970766" lon="4.517402963617006"><ele>116.2</ele><time>2026-04-05T15:07:20.999Z</time></trkpt><trkpt lat="43.915400215080886" lon="4.517444976286578"><ele>115.6</ele><time>2026-04-05T15:07:21.999Z</time></trkpt><trkpt lat="43.91531090047574" lon="4.517511582017371"><ele>115.0</ele><time>2026-04-05T15:07:23.999Z</time></trkpt><trkpt lat="43.91531805681598" lon="4.51772285136947"><ele>115.00000000000001</ele><time>2026-04-05T15:07:27.999Z</time></trkpt><trkpt lat="43.91534969908614" lon="4.517806973503928"><ele>115.0</ele><time>2026-04-05T15:07:28.999Z</time></trkpt><trkpt lat="43.91537912303113" lon="4.517885198140061"><ele>115.0</ele><time>2026-04-05T15:07:29.999Z</time></trkpt><trkpt lat="43.915391869209536" lon="4.517999259453157"><ele>115.0</ele><time>2026-04-05T15:07:31.999Z</time></trkpt><trkpt lat="43.91542110952673" lon="4.518099789702042"><ele>115.00000000000001</ele><time>2026-04-05T15:07:34.999Z</time></trkpt><trkpt lat="43.91535115780499" lon="4.518177409312444"><ele>115.0</ele><time>2026-04-05T15:07:37.999Z</time></trkpt><trkpt lat="43.91533341669194" lon="4.518273560619711"><ele>114.16666666666667</ele><time>2026-04-05T15:07:39.999Z</time></trkpt><trkpt lat="43.91532695021053" lon="4.518408140100483"><ele>113.33333333333334</ele><time>2026-04-05T15:07:41.999Z</time></trkpt><trkpt lat="43.915344908336756" lon="4.518583888424858"><ele>112.5</ele><time>2026-04-05T15:07:43.999Z</time></trkpt><trkpt lat="43.915367949800334" lon="4.518685529492272"><ele>111.66666666666666</ele><time>2026-04-05T15:07:44.999Z</time></trkpt><trkpt lat="43.915391490895665" lon="4.518768964773833"><ele>110.83333333333333</ele><time>2026-04-05T15:07:45.999Z</time></trkpt><trkpt lat="43.91541774614652" lon="4.518862865195685"><ele>110.0</ele><time>2026-04-05T15:07:46.999Z</time></trkpt><trkpt lat="43.9154419375814" lon="4.518969956075476"><ele>109.2</ele><time>2026-04-05T15:07:47.999Z</time></trkpt><trkpt lat="43.91546685097432" lon="4.519082436616062"><ele>108.4</ele><time>2026-04-05T15:07:48.999Z</time></trkpt><trkpt lat="43.91549002594825" lon="4.519187227605948"><ele>107.6</ele><time>2026-04-05T15:07:49.999Z</time></trkpt><trkpt lat="43.91549854110129" lon="4.519285610366694"><ele>106.8</ele><time>2026-04-05T15:07:50.999Z</time></trkpt><trkpt lat="43.91553110255834" lon="4.519438472107602"><ele>106.0</ele><time>2026-04-05T15:07:52.999Z</time></trkpt><trkpt lat="43.915564196381574" lon="4.519605214070354"><ele>105.28571428571429</ele><time>2026-04-05T15:07:54.999Z</time></trkpt><trkpt lat="43.91557462169686" lon="4.519692727469155"><ele>104.57142857142857</ele><time>2026-04-05T15:07:55.999Z</time></trkpt><trkpt lat="43.9155857758008" lon="4.519780171502839"><ele>103.85714285714286</ele><time>2026-04-05T15:07:56.999Z</time></trkpt><trkpt lat="43.91559723742388" lon="4.5198766862891295"><ele>103.14285714285714</ele><time>2026-04-05T15:07:57.999Z</time></trkpt><trkpt lat="43.915608642179436" lon="4.51997272221291"><ele>102.42857142857142</ele><time>2026-04-05T15:07:58.999Z</time></trkpt><trkpt lat="43.915617276932025" lon="4.520075820095478"><ele>101.71428571428571</ele><time>2026-04-05T15:07:59.999Z</time></trkpt><trkpt lat="43.91563616749379" lon="4.5201764789082155"><ele>101.0</ele><time>2026-04-05T15:08:00.999Z</time></trkpt><trkpt lat="43.91563405394923" lon="4.520273936000307"><ele>101.0</ele><time>2026-04-05T15:08:01.999Z</time></trkpt><trkpt lat="43.91563694310116" lon="4.520364411329965"><ele>101.0</ele><time>2026-04-05T15:08:02.999Z</time></trkpt><trkpt lat="43.915655017057475" lon="4.520459617944056"><ele>101.0</ele><time>2026-04-05T15:08:03.999Z</time></trkpt><trkpt lat="43.91565357301497" lon="4.5205696757761995"><ele>101.0</ele><time>2026-04-05T15:08:04.999Z</time></trkpt><trkpt lat="43.91566506779237" lon="4.520671949857086"><ele>101.0</ele><time>2026-04-05T15:08:05.999Z</time></trkpt><trkpt lat="43.91566971732552" lon="4.520782679521508"><ele>101.0</ele><time>2026-04-05T15:08:06.998Z</time></trkpt><trkpt lat="43.91568532192667" lon="4.5208903297900225"><ele>101.0</ele><time>2026-04-05T15:08:07.998Z</time></trkpt><trkpt lat="43.915699528215164" lon="4.520988294298035"><ele>100.0</ele><time>2026-04-05T15:08:08.998Z</time></trkpt><trkpt lat="43.91569848371895" lon="4.521088889529812"><ele>99.0</ele><time>2026-04-05T15:08:09.998Z</time></trkpt><trkpt lat="43.91571718990494" lon="4.521245900878688"><ele>98.0</ele><time>2026-04-05T15:08:11.998Z</time></trkpt><trkpt lat="43.91581649664235" lon="4.521370761840406"><ele>97.0</ele><time>2026-04-05T15:08:13.998Z</time></trkpt><trkpt lat="43.91587109858154" lon="4.521468376749097"><ele>96.0</ele><time>2026-04-05T15:08:15.998Z</time></trkpt><trkpt lat="43.9159198068718" lon="4.521533256808718"><ele>95.83333333333333</ele><time>2026-04-05T15:08:17.998Z</time></trkpt><trkpt lat="43.915964614346315" lon="4.521607126109137"><ele>95.66666666666667</ele><time>2026-04-05T15:08:20.998Z</time></trkpt><trkpt lat="43.91601504455064" lon="4.521707268847074"><ele>95.5</ele><time>2026-04-05T15:08:23.998Z</time></trkpt><trkpt lat="43.9160521169672" lon="4.521787349106514"><ele>95.33333333333334</ele><time>2026-04-05T15:08:44.999Z</time></trkpt><trkpt lat="43.91600211872707" lon="4.521847222757992"><ele>95.16666666666667</ele><time>2026-04-05T15:08:46.999Z</time></trkpt><trkpt lat="43.915914553136965" lon="4.52192030367886"><ele>95.0</ele><time>2026-04-05T15:08:48.999Z</time></trkpt><trkpt lat="43.91582702142965" lon="4.521998479353852"><ele>94.2</ele><time>2026-04-05T15:08:50.999Z</time></trkpt><trkpt lat="43.91573869549462" lon="4.522073518902701"><ele>93.4</ele><time>2026-04-05T15:08:52.999Z</time></trkpt><trkpt lat="43.915647533559316" lon="4.522148211222455"><ele>92.6</ele><time>2026-04-05T15:08:54.999Z</time></trkpt><trkpt lat="43.91557264620072" lon="4.5222126095414765"><ele>91.8</ele><time>2026-04-05T15:08:56.999Z</time></trkpt><trkpt lat="43.915498476768" lon="4.5222754179807705"><ele>91.0</ele><time>2026-04-05T15:08:59Z</time></trkpt><trkpt lat="43.91542975967317" lon="4.522361398579341"><ele>91.0</ele><time>2026-04-05T15:09:02Z</time></trkpt><trkpt lat="43.91541079335677" lon="4.522476720063533"><ele>91.0</ele><time>2026-04-05T15:09:04Z</time></trkpt><trkpt lat="43.91532956391936" lon="4.5225438601208845"><ele>91.0</ele><time>2026-04-05T15:09:06Z</time></trkpt><trkpt lat="43.915264607846105" lon="4.522522365188454"><ele>91.0</ele><time>2026-04-05T15:09:20Z</time></trkpt><trkpt lat="43.91519664676875" lon="4.5225613692729025"><ele>91.0</ele><time>2026-04-05T15:09:24Z</time></trkpt><trkpt lat="43.91511520011585" lon="4.522594527932521"><ele>91.0</ele><time>2026-04-05T15:09:26Z</time></trkpt><trkpt lat="43.915049737323415" lon="4.522579064594339"><ele>92.0</ele><time>2026-04-05T15:09:28Z</time></trkpt><trkpt lat="43.91505917589968" lon="4.522694231841614"><ele>93.0</ele><time>2026-04-05T15:09:31Z</time></trkpt><trkpt lat="43.91505981763475" lon="4.522789072517392"><ele>94.0</ele><time>2026-04-05T15:09:33Z</time></trkpt><trkpt lat="43.91500911109032" lon="4.522893209965028"><ele>95.0</ele><time>2026-04-05T15:09:35Z</time></trkpt><trkpt lat="43.91492579521558" lon="4.522981998495867"><ele>96.00000000000001</ele><time>2026-04-05T15:09:36.999Z</time></trkpt><trkpt lat="43.91496454801573" lon="4.523097203418819"><ele>97.0</ele><time>2026-04-05T15:09:38.999Z</time></trkpt><trkpt lat="43.91499110316116" lon="4.523202426367907"><ele>97.66666666666667</ele><time>2026-04-05T15:09:40.999Z</time></trkpt><trkpt lat="43.9149297526449" lon="4.523295725732817"><ele>98.33333333333334</ele><time>2026-04-05T15:09:42.999Z</time></trkpt><trkpt lat="43.91488477747795" lon="4.5233617587582895"><ele>99.0</ele><time>2026-04-05T15:09:44.999Z</time></trkpt><trkpt lat="43.914812580112724" lon="4.523452687637562"><ele>99.66666666666666</ele><time>2026-04-05T15:09:46.999Z</time></trkpt><trkpt lat="43.91478755113765" lon="4.523557028150064"><ele>100.33333333333333</ele><time>2026-04-05T15:09:48.999Z</time></trkpt><trkpt lat="43.91477117717525" lon="4.523665853619113"><ele>101.0</ele><time>2026-04-05T15:09:51.999Z</time></trkpt><trkpt lat="43.91478370799856" lon="4.523838166726284"><ele>101.49999999999999</ele><time>2026-04-05T15:09:53.999Z</time></trkpt><trkpt lat="43.91478707125821" lon="4.523931958168609"><ele>102.0</ele><time>2026-04-05T15:09:54.999Z</time></trkpt><trkpt lat="43.9148123608007" lon="4.52410593226307"><ele>102.5</ele><time>2026-04-05T15:09:56.999Z</time></trkpt><trkpt lat="43.91480803938223" lon="4.524249742322003"><ele>103.0</ele><time>2026-04-05T15:09:58.999Z</time></trkpt><trkpt lat="43.91477650099545" lon="4.52433928823476"><ele>103.49999999999999</ele><time>2026-04-05T15:10:01.999Z</time></trkpt><trkpt lat="43.91470208963902" lon="4.524371166559255"><ele>104.0</ele><time>2026-04-05T15:10:15.999Z</time></trkpt><trkpt lat="43.914632422728744" lon="4.52439428028939"><ele>103.99999999999999</ele><time>2026-04-05T15:10:17.999Z</time></trkpt><trkpt lat="43.914560638278274" lon="4.524406180831605"><ele>104.0</ele><time>2026-04-05T15:10:19.999Z</time></trkpt><trkpt lat="43.91448438319591" lon="4.5244072565208535"><ele>104.0</ele><time>2026-04-05T15:10:21.999Z</time></trkpt><trkpt lat="43.9143958109208" lon="4.524431137509297"><ele>104.0</ele><time>2026-04-05T15:10:24.999Z</time></trkpt><trkpt lat="43.914326046176434" lon="4.524448855397271"><ele>103.99999999999999</ele><time>2026-04-05T15:10:27Z</time></trkpt><trkpt lat="43.91425016808" lon="4.524469558584293"><ele>104.0</ele><time>2026-04-05T15:10:29Z</time></trkpt><trkpt lat="43.914185184988085" lon="4.5244452750117246"><ele>104.83333333333333</ele><time>2026-04-05T15:10:31Z</time></trkpt><trkpt lat="43.9141613324417" lon="4.524320589795682"><ele>105.66666666666666</ele><time>2026-04-05T15:10:33Z</time></trkpt><trkpt lat="43.914158125382805" lon="4.524202767366709"><ele>106.5</ele><time>2026-04-05T15:10:35Z</time></trkpt><trkpt lat="43.91409952659404" lon="4.524091096026633"><ele>107.33333333333334</ele><time>2026-04-05T15:10:38Z</time></trkpt><trkpt lat="43.91402348583432" lon="4.524089305281586"><ele>108.16666666666667</ele><time>2026-04-05T15:10:40Z</time></trkpt><trkpt lat="43.913952074772894" lon="4.524123641755191"><ele>109.0</ele><time>2026-04-05T15:10:42Z</time></trkpt><trkpt lat="43.913887509449985" lon="4.524186399816822"><ele>109.00000000000001</ele><time>2026-04-05T15:11:34Z</time></trkpt><trkpt lat="43.913895614323216" lon="4.524339047957022"><ele>109.0</ele><time>2026-04-05T15:11:36Z</time></trkpt><trkpt lat="43.91389691797176" lon="4.524475215000745"><ele>109.0</ele><time>2026-04-05T15:11:38Z</time></trkpt><trkpt lat="43.913902040224166" lon="4.524591297831075"><ele>109.0</ele><time>2026-04-05T15:11:40Z</time></trkpt><trkpt lat="43.91391494199508" lon="4.524696556981954"><ele>109.00000000000001</ele><time>2026-04-05T15:11:42Z</time></trkpt><trkpt lat="43.91391957039292" lon="4.524796482470174"><ele>109.0</ele><time>2026-04-05T15:11:44Z</time></trkpt><trkpt lat="43.91391544236228" lon="4.524891643104383"><ele>108.33333333333334</ele><time>2026-04-05T15:11:46Z</time></trkpt><trkpt lat="43.913908363450275" lon="4.525000813637305"><ele>107.66666666666667</ele><time>2026-04-05T15:11:48Z</time></trkpt><trkpt lat="43.913868374075236" lon="4.525118305599408"><ele>107.0</ele><time>2026-04-05T15:11:50Z</time></trkpt><trkpt lat="43.913833738231844" lon="4.525213486700604"><ele>106.33333333333334</ele><time>2026-04-05T15:11:52Z</time></trkpt><trkpt lat="43.9138022179555" lon="4.525294432928966"><ele>105.66666666666667</ele><time>2026-04-05T15:11:54Z</time></trkpt><trkpt lat="43.91376986697963" lon="4.525403003687509"><ele>105.0</ele><time>2026-04-05T15:11:57Z</time></trkpt><trkpt lat="43.913759583345055" lon="4.52549943153552"><ele>103.8</ele><time>2026-04-05T15:11:59Z</time></trkpt><trkpt lat="43.91378359334885" lon="4.525596149911244"><ele>102.6</ele><time>2026-04-05T15:12:02Z</time></trkpt><trkpt lat="43.91374920062516" lon="4.525729702820109"><ele>101.4</ele><time>2026-04-05T15:12:05Z</time></trkpt><trkpt lat="43.91371356527132" lon="4.525834599065585"><ele>100.2</ele><time>2026-04-05T15:12:07Z</time></trkpt><trkpt lat="43.913765822509575" lon="4.525943152832335"><ele>99.0</ele><time>2026-04-05T15:12:09Z</time></trkpt><trkpt lat="43.913852976198235" lon="4.5260353420274075"><ele>99.0</ele><time>2026-04-05T15:12:11Z</time></trkpt><trkpt lat="43.91392426214476" lon="4.526097038506928"><ele>99.0</ele><time>2026-04-05T15:12:13Z</time></trkpt><trkpt lat="43.91399018167134" lon="4.526153201599765"><ele>99.0</ele><time>2026-04-05T15:12:16Z</time></trkpt><trkpt lat="43.9140651329646" lon="4.526211176953584"><ele>99.0</ele><time>2026-04-05T15:12:20Z</time></trkpt><trkpt lat="43.91418767279259" lon="4.526242234126985"><ele>99.0</ele><time>2026-04-05T15:12:22Z</time></trkpt><trkpt lat="43.91425790030761" lon="4.526277406511013"><ele>99.0</ele><time>2026-04-05T15:12:23Z</time></trkpt><trkpt lat="43.91433591270589" lon="4.526331451175052"><ele>98.0</ele><time>2026-04-05T15:12:24Z</time></trkpt><trkpt lat="43.91441085900767" lon="4.526370164011011"><ele>97.0</ele><time>2026-04-05T15:12:25Z</time></trkpt><trkpt lat="43.91451820835424" lon="4.526355854880432"><ele>96.0</ele><time>2026-04-05T15:12:27Z</time></trkpt><trkpt lat="43.9145987738985" lon="4.526327841498094"><ele>95.0</ele><time>2026-04-05T15:12:29Z</time></trkpt><trkpt lat="43.914511954730834" lon="4.52635724790208"><ele>94.0</ele><time>2026-04-05T15:12:37Z</time></trkpt><trkpt lat="43.914439648876204" lon="4.526351667795133"><ele>93.0</ele><time>2026-04-05T15:12:39Z</time></trkpt><trkpt lat="43.914353713707115" lon="4.526332817352844"><ele>93.0</ele><time>2026-04-05T15:12:41Z</time></trkpt><trkpt lat="43.91428070276739" lon="4.52628701000171"><ele>93.0</ele><time>2026-04-05T15:12:43Z</time></trkpt><trkpt lat="43.914206828998545" lon="4.5262385470223325"><ele>93.0</ele><time>2026-04-05T15:12:45Z</time></trkpt><trkpt lat="43.914138671866795" lon="4.526213819535987"><ele>93.0</ele><time>2026-04-05T15:12:47Z</time></trkpt><trkpt lat="43.91406861125491" lon="4.5261865691904"><ele>93.0</ele><time>2026-04-05T15:12:49Z</time></trkpt><trkpt lat="43.914001031763256" lon="4.52615841146351"><ele>93.0</ele><time>2026-04-05T15:12:51Z</time></trkpt><trkpt lat="43.91394683143235" lon="4.526260850741447"><ele>93.16666666666667</ele><time>2026-04-05T15:12:55Z</time></trkpt><trkpt lat="43.91388070582124" lon="4.526342328336348"><ele>93.33333333333333</ele><time>2026-04-05T15:12:57Z</time></trkpt><trkpt lat="43.91381567131688" lon="4.526394743533127"><ele>93.5</ele><time>2026-04-05T15:12:59Z</time></trkpt><trkpt lat="43.91377377890537" lon="4.526468169489613"><ele>93.66666666666666</ele><time>2026-04-05T15:13:01Z</time></trkpt><trkpt lat="43.91371361123586" lon="4.526546499410807"><ele>93.83333333333333</ele><time>2026-04-05T15:13:03Z</time></trkpt><trkpt lat="43.91360189798206" lon="4.526618476697895"><ele>94.0</ele><time>2026-04-05T15:13:05Z</time></trkpt><trkpt lat="43.91352401879188" lon="4.5266848072854975"><ele>94.0</ele><time>2026-04-05T15:13:07Z</time></trkpt><trkpt lat="43.91344701653059" lon="4.526766661131045"><ele>94.0</ele><time>2026-04-05T15:13:10Z</time></trkpt><trkpt lat="43.91334140742138" lon="4.5267950337704645"><ele>94.0</ele><time>2026-04-05T15:13:12Z</time></trkpt><trkpt lat="43.91323851365977" lon="4.526752849970924"><ele>94.0</ele><time>2026-04-05T15:13:14Z</time></trkpt><trkpt lat="43.91317196024714" lon="4.5267403000752235"><ele>94.0</ele><time>2026-04-05T15:13:16Z</time></trkpt><trkpt lat="43.91311498076731" lon="4.526812066218117"><ele>93.66666666666666</ele><time>2026-04-05T15:13:20Z</time></trkpt><trkpt lat="43.91308962773427" lon="4.526911905386635"><ele>93.33333333333333</ele><time>2026-04-05T15:13:23Z</time></trkpt><trkpt lat="43.91305459127863" lon="4.527003024062924"><ele>93.0</ele><time>2026-04-05T15:13:25Z</time></trkpt><trkpt lat="43.91301518955116" lon="4.527074114237228"><ele>92.66666666666667</ele><time>2026-04-05T15:13:28Z</time></trkpt><trkpt lat="43.91298057072672" lon="4.527152030961505"><ele>92.33333333333334</ele><time>2026-04-05T15:13:33Z</time></trkpt><trkpt lat="43.912940910808565" lon="4.527259034028386"><ele>92.0</ele><time>2026-04-05T15:13:41Z</time></trkpt><trkpt lat="43.912841850820776" lon="4.527281103899444"><ele>91.83333333333334</ele><time>2026-04-05T15:13:45Z</time></trkpt><trkpt lat="43.912771122252515" lon="4.527262774834517"><ele>91.66666666666667</ele><time>2026-04-05T15:13:48Z</time></trkpt><trkpt lat="43.91271496923361" lon="4.527193376590272"><ele>91.5</ele><time>2026-04-05T15:13:50Z</time></trkpt><trkpt lat="43.912667615750365" lon="4.5271232724241"><ele>91.33333333333333</ele><time>2026-04-05T15:13:52Z</time></trkpt><trkpt lat="43.91259317409269" lon="4.527084467674397"><ele>91.16666666666666</ele><time>2026-04-05T15:13:55Z</time></trkpt><trkpt lat="43.91251554746285" lon="4.527035027316447"><ele>91.0</ele><time>2026-04-05T15:13:57Z</time></trkpt><trkpt lat="43.91244068870127" lon="4.52699639573699"><ele>91.5</ele><time>2026-04-05T15:14:00Z</time></trkpt><trkpt lat="43.91237679656249" lon="4.5269649709977156"><ele>92.0</ele><time>2026-04-05T15:14:02Z</time></trkpt><trkpt lat="43.91226891555695" lon="4.526937636550044"><ele>92.5</ele><time>2026-04-05T15:14:04Z</time></trkpt><trkpt lat="43.91220700680044" lon="4.52685945260131"><ele>93.0</ele><time>2026-04-05T15:14:06Z</time></trkpt><trkpt lat="43.91218968212742" lon="4.5267644003086325"><ele>93.5</ele><time>2026-04-05T15:14:08Z</time></trkpt><trkpt lat="43.91213446626349" lon="4.526693602055828"><ele>94.0</ele><time>2026-04-05T15:14:10Z</time></trkpt><trkpt lat="43.912055581185264" lon="4.526655018899261"><ele>94.0</ele><time>2026-04-05T15:14:12Z</time></trkpt><trkpt lat="43.91198132308819" lon="4.52663751699639"><ele>94.0</ele><time>2026-04-05T15:14:15Z</time></trkpt><trkpt lat="43.91190163948815" lon="4.526619289712766"><ele>94.0</ele><time>2026-04-05T15:14:18Z</time></trkpt><trkpt lat="43.911844660424855" lon="4.526550612669469"><ele>94.0</ele><time>2026-04-05T15:14:20Z</time></trkpt><trkpt lat="43.9117724989815" lon="4.526543683234922"><ele>94.0</ele><time>2026-04-05T15:14:22Z</time></trkpt><trkpt lat="43.91170853964962" lon="4.526457358346447"><ele>94.0</ele><time>2026-04-05T15:14:24Z</time></trkpt><trkpt lat="43.911634083885644" lon="4.526403840928355"><ele>94.16666666666666</ele><time>2026-04-05T15:14:26Z</time></trkpt><trkpt lat="43.91155031482968" lon="4.526358222218112"><ele>94.33333333333333</ele><time>2026-04-05T15:14:28Z</time></trkpt><trkpt lat="43.911482877419225" lon="4.526317691640037"><ele>94.5</ele><time>2026-04-05T15:14:30Z</time></trkpt><trkpt lat="43.91141141494774" lon="4.5262982252332264"><ele>94.66666666666667</ele><time>2026-04-05T15:14:32Z</time></trkpt><trkpt lat="43.91131445804315" lon="4.526236536111221"><ele>94.83333333333334</ele><time>2026-04-05T15:14:36Z</time></trkpt><trkpt lat="43.91125791848293" lon="4.526290345720647"><ele>95.0</ele><time>2026-04-05T15:14:39Z</time></trkpt><trkpt lat="43.911191466852856" lon="4.526363399417667"><ele>95.0</ele><time>2026-04-05T15:14:41Z</time></trkpt><trkpt lat="43.91110741471755" lon="4.526388936679546"><ele>95.0</ele><time>2026-04-05T15:14:44Z</time></trkpt><trkpt lat="43.9110304121915" lon="4.526386941494598"><ele>95.0</ele><time>2026-04-05T15:14:47Z</time></trkpt><trkpt lat="43.91099634346051" lon="4.526488653993994"><ele>95.0</ele><time>2026-04-05T15:14:49Z</time></trkpt><trkpt lat="43.91091322831466" lon="4.52654584068241"><ele>95.0</ele><time>2026-04-05T15:14:57Z</time></trkpt><trkpt lat="43.9108496732687" lon="4.5265992424180785"><ele>95.0</ele><time>2026-04-05T15:14:59Z</time></trkpt><trkpt lat="43.91078707649618" lon="4.5265895723087946"><ele>95.5</ele><time>2026-04-05T15:15:02Z</time></trkpt><trkpt lat="43.910716244709576" lon="4.526553504767024"><ele>96.0</ele><time>2026-04-05T15:15:06Z</time></trkpt><trkpt lat="43.91064755291351" lon="4.526518151583306"><ele>96.5</ele><time>2026-04-05T15:15:08Z</time></trkpt><trkpt lat="43.91055533270364" lon="4.526506855382231"><ele>97.0</ele><time>2026-04-05T15:15:10Z</time></trkpt><trkpt lat="43.91047916083431" lon="4.526447705551148"><ele>97.49999999999999</ele><time>2026-04-05T15:15:12Z</time></trkpt><trkpt lat="43.91041178080902" lon="4.5264314732010975"><ele>98.0</ele><time>2026-04-05T15:15:14Z</time></trkpt><trkpt lat="43.91033565961254" lon="4.526401612528425"><ele>98.0</ele><time>2026-04-05T15:15:16Z</time></trkpt><trkpt lat="43.91027162439915" lon="4.526359773793688"><ele>98.0</ele><time>2026-04-05T15:15:19Z</time></trkpt><trkpt lat="43.91021667153814" lon="4.526419540556303"><ele>98.0</ele><time>2026-04-05T15:15:22Z</time></trkpt><trkpt lat="43.910150017915406" lon="4.5264387084083895"><ele>98.0</ele><time>2026-04-05T15:15:24Z</time></trkpt><trkpt lat="43.91009608705634" lon="4.526518556382132"><ele>98.0</ele><time>2026-04-05T15:15:27Z</time></trkpt><trkpt lat="43.91001643661223" lon="4.5265210049448354"><ele>98.0</ele><time>2026-04-05T15:15:30Z</time></trkpt><trkpt lat="43.90995319770835" lon="4.526457422381855"><ele>98.0</ele><time>2026-04-05T15:15:33Z</time></trkpt><trkpt lat="43.90994303319154" lon="4.526327823696408"><ele>97.99999999999999</ele><time>2026-04-05T15:15:38Z</time></trkpt><trkpt lat="43.90992063179281" lon="4.526219802439749"><ele>98.0</ele><time>2026-04-05T15:15:40Z</time></trkpt><trkpt lat="43.90985973095133" lon="4.526149286905517"><ele>98.0</ele><time>2026-04-05T15:15:43Z</time></trkpt><trkpt lat="43.90979258004155" lon="4.5261408714851825"><ele>98.0</ele><time>2026-04-05T15:15:46Z</time></trkpt><trkpt lat="43.90979524088036" lon="4.526023145978959"><ele>97.99999999999999</ele><time>2026-04-05T15:15:50Z</time></trkpt><trkpt lat="43.909747332452255" lon="4.525955859245916"><ele>98.0</ele><time>2026-04-05T15:15:52Z</time></trkpt><trkpt lat="43.9097159390475" lon="4.5258623704248135"><ele>97.99999999999999</ele><time>2026-04-05T15:15:54Z</time></trkpt><trkpt lat="43.90970974777427" lon="4.525750974108046"><ele>98.0</ele><time>2026-04-05T15:15:56Z</time></trkpt><trkpt lat="43.90966166655988" lon="4.525661413324318"><ele>98.0</ele><time>2026-04-05T15:15:58Z</time></trkpt><trkpt lat="43.90960747691369" lon="4.5255664067637476"><ele>98.0</ele><time>2026-04-05T15:16:01Z</time></trkpt><trkpt lat="43.909617165841375" lon="4.525479111554967"><ele>97.99999999999999</ele><time>2026-04-05T15:16:04Z</time></trkpt><trkpt lat="43.90956253166604" lon="4.525404701425983"><ele>98.0</ele><time>2026-04-05T15:16:06Z</time></trkpt><trkpt lat="43.9094993504299" lon="4.525407855311849"><ele>97.99999999999999</ele><time>2026-04-05T15:16:07Z</time></trkpt><trkpt lat="43.90940371139593" lon="4.525382944010594"><ele>98.0</ele><time>2026-04-05T15:16:09Z</time></trkpt><trkpt lat="43.90933041108552" lon="4.525358514209526"><ele>98.0</ele><time>2026-04-05T15:16:11Z</time></trkpt><trkpt lat="43.90927213801285" lon="4.525420275153739"><ele>98.0</ele><time>2026-04-05T15:16:15Z</time></trkpt><trkpt lat="43.90926914857663" lon="4.525513612706532"><ele>97.99999999999999</ele><time>2026-04-05T15:16:17Z</time></trkpt><trkpt lat="43.90929608265047" lon="4.525601694146583"><ele>98.0</ele><time>2026-04-05T15:16:20Z</time></trkpt><trkpt lat="43.90930165666335" lon="4.525717895820686"><ele>98.42857142857143</ele><time>2026-04-05T15:16:23Z</time></trkpt><trkpt lat="43.90922906064264" lon="4.525704855110217"><ele>98.85714285714286</ele><time>2026-04-05T15:16:29Z</time></trkpt><trkpt lat="43.90918064639185" lon="4.525638346873718"><ele>99.28571428571428</ele><time>2026-04-05T15:16:31Z</time></trkpt><trkpt lat="43.909108467873935" lon="4.525638288839331"><ele>99.71428571428572</ele><time>2026-04-05T15:16:33Z</time></trkpt><trkpt lat="43.90904140671041" lon="4.525689638748311"><ele>100.14285714285714</ele><time>2026-04-05T15:16:35Z</time></trkpt><trkpt lat="43.90895491354726" lon="4.525711569670774"><ele>100.57142857142857</ele><time>2026-04-05T15:16:38Z</time></trkpt><trkpt lat="43.90892857411746" lon="4.525802887868862"><ele>101.0</ele><time>2026-04-05T15:16:41Z</time></trkpt><trkpt lat="43.908913559418046" lon="4.525887806249783"><ele>101.0</ele><time>2026-04-05T15:16:43Z</time></trkpt><trkpt lat="43.90887778990444" lon="4.525962113015417"><ele>101.0</ele><time>2026-04-05T15:16:45Z</time></trkpt><trkpt lat="43.908822084384525" lon="4.52605973435015"><ele>101.0</ele><time>2026-04-05T15:16:47Z</time></trkpt><trkpt lat="43.90882264068302" lon="4.52615550872918"><ele>101.0</ele><time>2026-04-05T15:16:49Z</time></trkpt><trkpt lat="43.90879629607303" lon="4.526245867834014"><ele>101.0</ele><time>2026-04-05T15:16:52Z</time></trkpt><trkpt lat="43.908846831814145" lon="4.526315882151918"><ele>101.0</ele><time>2026-04-05T15:17:38Z</time></trkpt><trkpt lat="43.90889450708803" lon="4.526402901856511"><ele>101.0</ele><time>2026-04-05T15:17:41Z</time></trkpt><trkpt lat="43.90891354850183" lon="4.526533969454883"><ele>101.8</ele><time>2026-04-05T15:17:44Z</time></trkpt><trkpt lat="43.9089899040674" lon="4.526655479872997"><ele>102.6</ele><time>2026-04-05T15:17:46Z</time></trkpt><trkpt lat="43.90903719792588" lon="4.526735057717562"><ele>103.4</ele><time>2026-04-05T15:17:47Z</time></trkpt><trkpt lat="43.90906524772696" lon="4.526854719750731"><ele>104.2</ele><time>2026-04-05T15:17:49Z</time></trkpt><trkpt lat="43.90910557551477" lon="4.52697830788252"><ele>105.0</ele><time>2026-04-05T15:17:51Z</time></trkpt><trkpt lat="43.909183642313856" lon="4.527051070141011"><ele>105.5</ele><time>2026-04-05T15:17:53Z</time></trkpt><trkpt lat="43.909214872113274" lon="4.527143107616639"><ele>106.0</ele><time>2026-04-05T15:17:55Z</time></trkpt><trkpt lat="43.90924046436142" lon="4.527285890546946"><ele>106.5</ele><time>2026-04-05T15:17:57Z</time></trkpt><trkpt lat="43.9092194718137" lon="4.527407838401496"><ele>107.0</ele><time>2026-04-05T15:17:59Z</time></trkpt><trkpt lat="43.90915457726709" lon="4.527448260569561"><ele>107.5</ele><time>2026-04-05T15:18:01Z</time></trkpt><trkpt lat="43.909151925318355" lon="4.527558757254841"><ele>108.0</ele><time>2026-04-05T15:18:03Z</time></trkpt><trkpt lat="43.90918096917092" lon="4.527693585349555"><ele>108.0</ele><time>2026-04-05T15:18:05Z</time></trkpt><trkpt lat="43.909100854247846" lon="4.527754021780997"><ele>108.0</ele><time>2026-04-05T15:18:08Z</time></trkpt><trkpt lat="43.909060441927245" lon="4.527857838017097"><ele>108.0</ele><time>2026-04-05T15:18:10Z</time></trkpt><trkpt lat="43.90905972475892" lon="4.527953963659276"><ele>108.0</ele><time>2026-04-05T15:18:13Z</time></trkpt><trkpt lat="43.9090403171246" lon="4.52804937136508"><ele>108.0</ele><time>2026-04-05T15:18:17Z</time></trkpt><trkpt lat="43.90909124054225" lon="4.528125276014487"><ele>108.0</ele><time>2026-04-05T15:18:20Z</time></trkpt><trkpt lat="43.90910859438372" lon="4.528239832851573"><ele>107.83333333333333</ele><time>2026-04-05T15:18:23Z</time></trkpt><trkpt lat="43.90915938507968" lon="4.528311280144595"><ele>107.66666666666666</ele><time>2026-04-05T15:18:25Z</time></trkpt><trkpt lat="43.9091739518882" lon="4.528399953429547"><ele>107.5</ele><time>2026-04-05T15:18:28Z</time></trkpt><trkpt lat="43.90913034343683" lon="4.528463161783157"><ele>107.33333333333333</ele><time>2026-04-05T15:18:30Z</time></trkpt><trkpt lat="43.909086131518954" lon="4.528592043423918"><ele>107.16666666666666</ele><time>2026-04-05T15:18:36Z</time></trkpt><trkpt lat="43.9090766047982" lon="4.5287426549790775"><ele>107.0</ele><time>2026-04-05T15:18:38Z</time></trkpt><trkpt lat="43.90906935402726" lon="4.528852358062699"><ele>106.49999999999999</ele><time>2026-04-05T15:18:41Z</time></trkpt><trkpt lat="43.909148517434716" lon="4.528909096676595"><ele>106.0</ele><time>2026-04-05T15:18:44Z</time></trkpt><trkpt lat="43.909229220776574" lon="4.5288779648923025"><ele>105.5</ele><time>2026-04-05T15:18:46Z</time></trkpt><trkpt lat="43.90934400601508" lon="4.528894166881122"><ele>105.0</ele><time>2026-04-05T15:18:48Z</time></trkpt><trkpt lat="43.9094089339432" lon="4.5289318633567595"><ele>104.49999999999999</ele><time>2026-04-05T15:18:49Z</time></trkpt><trkpt lat="43.909468440661385" lon="4.52897401337559"><ele>104.0</ele><time>2026-04-05T15:18:50Z</time></trkpt><trkpt lat="43.909554277834886" lon="4.529085625291511"><ele>103.6</ele><time>2026-04-05T15:18:52.001Z</time></trkpt><trkpt lat="43.90957563321914" lon="4.52925449416434"><ele>103.2</ele><time>2026-04-05T15:18:54.001Z</time></trkpt><trkpt lat="43.90954863366798" lon="4.5293952492417455"><ele>102.8</ele><time>2026-04-05T15:18:56.001Z</time></trkpt><trkpt lat="43.90947916953733" lon="4.529456802693636"><ele>102.39999999999999</ele><time>2026-04-05T15:18:58.001Z</time></trkpt><trkpt lat="43.90938466863737" lon="4.529446415465748"><ele>102.0</ele><time>2026-04-05T15:19:00.001Z</time></trkpt><trkpt lat="43.90930153071164" lon="4.529467621193759"><ele>102.0</ele><time>2026-04-05T15:19:02Z</time></trkpt><trkpt lat="43.909291561531774" lon="4.52955710760935"><ele>102.0</ele><time>2026-04-05T15:19:05Z</time></trkpt><trkpt lat="43.90928998422893" lon="4.5296912300787335"><ele>102.0</ele><time>2026-04-05T15:19:08Z</time></trkpt><trkpt lat="43.90924329869336" lon="4.529778890724237"><ele>102.0</ele><time>2026-04-05T15:19:10Z</time></trkpt><trkpt lat="43.909168411743494" lon="4.529828323056901"><ele>102.0</ele><time>2026-04-05T15:19:13Z</time></trkpt><trkpt lat="43.909120261272314" lon="4.529918299697894"><ele>102.0</ele><time>2026-04-05T15:19:15Z</time></trkpt><trkpt lat="43.90906617140284" lon="4.53003048236824"><ele>102.5</ele><time>2026-04-05T15:19:17Z</time></trkpt><trkpt lat="43.909023950942405" lon="4.530108169862463"><ele>103.0</ele><time>2026-04-05T15:19:19Z</time></trkpt><trkpt lat="43.90896978337075" lon="4.5302374078381655"><ele>103.5</ele><time>2026-04-05T15:19:21Z</time></trkpt><trkpt lat="43.90895036882355" lon="4.530333000663404"><ele>104.0</ele><time>2026-04-05T15:19:23Z</time></trkpt><trkpt lat="43.908953338389125" lon="4.530484927895373"><ele>104.5</ele><time>2026-04-05T15:19:25Z</time></trkpt><trkpt lat="43.9089235066867" lon="4.530578810273252"><ele>105.0</ele><time>2026-04-05T15:19:27Z</time></trkpt><trkpt lat="43.90888904601747" lon="4.530690308352317"><ele>105.4</ele><time>2026-04-05T15:19:29Z</time></trkpt><trkpt lat="43.90886033311929" lon="4.530840580305289"><ele>105.8</ele><time>2026-04-05T15:19:31Z</time></trkpt><trkpt lat="43.90880951084541" lon="4.530984951303006"><ele>106.19999999999999</ele><time>2026-04-05T15:19:33Z</time></trkpt><trkpt lat="43.9087460327112" lon="4.531046414957498"><ele>106.6</ele><time>2026-04-05T15:19:36Z</time></trkpt><trkpt lat="43.90873380958238" lon="4.531151991129248"><ele>107.0</ele><time>2026-04-05T15:19:50Z</time></trkpt><trkpt lat="43.908714983424424" lon="4.531268807076923"><ele>107.49999999999999</ele><time>2026-04-05T15:19:52Z</time></trkpt><trkpt lat="43.90870266637516" lon="4.531421222820325"><ele>108.0</ele><time>2026-04-05T15:19:54Z</time></trkpt><trkpt lat="43.90868950916888" lon="4.53151626660569"><ele>108.5</ele><time>2026-04-05T15:19:55Z</time></trkpt><trkpt lat="43.90866839730044" lon="4.531609424540745"><ele>109.0</ele><time>2026-04-05T15:19:56Z</time></trkpt><trkpt lat="43.90864495761631" lon="4.531718576694615"><ele>109.49999999999999</ele><time>2026-04-05T15:19:57Z</time></trkpt><trkpt lat="43.90862317718209" lon="4.531837991888793"><ele>110.0</ele><time>2026-04-05T15:19:58Z</time></trkpt><trkpt lat="43.908617788016215" lon="4.531940269109994"><ele>109.99999999999999</ele><time>2026-04-05T15:19:59Z</time></trkpt><trkpt lat="43.90863310564755" lon="4.532030008181058"><ele>110.0</ele><time>2026-04-05T15:20:01Z</time></trkpt><trkpt lat="43.908619906046795" lon="4.531912284298551"><ele>110.0</ele><time>2026-04-05T15:20:06Z</time></trkpt><trkpt lat="43.908635908315745" lon="4.5318171615477905"><ele>110.0</ele><time>2026-04-05T15:20:08Z</time></trkpt><trkpt lat="43.90864973100826" lon="4.531730552142945"><ele>110.0</ele><time>2026-04-05T15:20:10Z</time></trkpt><trkpt lat="43.908581468547716" lon="4.531697847779608"><ele>109.99999999999999</ele><time>2026-04-05T15:20:15Z</time></trkpt><trkpt lat="43.908525602089206" lon="4.531744328492405"><ele>110.0</ele><time>2026-04-05T15:20:17Z</time></trkpt><trkpt lat="43.90843948778191" lon="4.531716323319252"><ele>110.66666666666666</ele><time>2026-04-05T15:20:20Z</time></trkpt><trkpt lat="43.9083722146059" lon="4.531700948239301"><ele>111.33333333333333</ele><time>2026-04-05T15:20:22Z</time></trkpt><trkpt lat="43.908274582946106" lon="4.531682483557117"><ele>112.0</ele><time>2026-04-05T15:20:25Z</time></trkpt><trkpt lat="43.908200088832984" lon="4.531712997023733"><ele>112.66666666666666</ele><time>2026-04-05T15:20:28Z</time></trkpt><trkpt lat="43.90816865520301" lon="4.531813168310854"><ele>113.33333333333333</ele><time>2026-04-05T15:20:30Z</time></trkpt><trkpt lat="43.908083915441566" lon="4.531830445902304"><ele>114.0</ele><time>2026-04-05T15:20:32Z</time></trkpt><trkpt lat="43.90801612837677" lon="4.531863404253929"><ele>114.0</ele><time>2026-04-05T15:20:34Z</time></trkpt><trkpt lat="43.90801268985487" lon="4.531967552005962"><ele>114.0</ele><time>2026-04-05T15:20:36Z</time></trkpt><trkpt lat="43.90795997190846" lon="4.532045718416139"><ele>114.0</ele><time>2026-04-05T15:20:38Z</time></trkpt><trkpt lat="43.907884021439585" lon="4.532084850174739"><ele>114.0</ele><time>2026-04-05T15:20:40Z</time></trkpt><trkpt lat="43.9078120962121" lon="4.532020631834724"><ele>114.0</ele><time>2026-04-05T15:20:42Z</time></trkpt><trkpt lat="43.90775904070528" lon="4.5319526455234085"><ele>114.0</ele><time>2026-04-05T15:20:44Z</time></trkpt><trkpt lat="43.90768673189361" lon="4.532000052242282"><ele>114.0</ele><time>2026-04-05T15:20:46Z</time></trkpt><trkpt lat="43.90760446631361" lon="4.532038219883868"><ele>114.0</ele><time>2026-04-05T15:20:48Z</time></trkpt><trkpt lat="43.90755533991132" lon="4.532132941590413"><ele>114.0</ele><time>2026-04-05T15:20:51Z</time></trkpt><trkpt lat="43.907481968446426" lon="4.532128822603906"><ele>114.0</ele><time>2026-04-05T15:20:54Z</time></trkpt><trkpt lat="43.90740595634335" lon="4.532125442741566"><ele>114.0</ele><time>2026-04-05T15:20:56Z</time></trkpt><trkpt lat="43.90732136178736" lon="4.532093304248949"><ele>114.0</ele><time>2026-04-05T15:20:58.001Z</time></trkpt><trkpt lat="43.9072594677209" lon="4.53205932605919"><ele>115.16666666666667</ele><time>2026-04-05T15:21:01.001Z</time></trkpt><trkpt lat="43.90718000677592" lon="4.532150847477659"><ele>116.33333333333334</ele><time>2026-04-05T15:21:04.001Z</time></trkpt><trkpt lat="43.90712368260607" lon="4.532199685647188"><ele>117.5</ele><time>2026-04-05T15:21:06Z</time></trkpt><trkpt lat="43.90706488163472" lon="4.532272232691047"><ele>118.66666666666667</ele><time>2026-04-05T15:21:14Z</time></trkpt><trkpt lat="43.9069822966509" lon="4.5322263298617536"><ele>119.83333333333334</ele><time>2026-04-05T15:21:16Z</time></trkpt><trkpt lat="43.906908236838035" lon="4.532295777911653"><ele>121.0</ele><time>2026-04-05T15:22:38Z</time></trkpt><trkpt lat="43.906827431363816" lon="4.5323055524593325"><ele>121.00000000000001</ele><time>2026-04-05T15:22:41Z</time></trkpt><trkpt lat="43.90675924864767" lon="4.532338406004463"><ele>121.0</ele><time>2026-04-05T15:22:43Z</time></trkpt><trkpt lat="43.90674385679193" lon="4.532424616322442"><ele>121.0</ele><time>2026-04-05T15:22:46Z</time></trkpt><trkpt lat="43.90667892418663" lon="4.532486950703702"><ele>121.0</ele><time>2026-04-05T15:22:49Z</time></trkpt><trkpt lat="43.90661018834501" lon="4.532566337037219"><ele>121.00000000000001</ele><time>2026-04-05T15:22:53Z</time></trkpt><trkpt lat="43.90656867178646" lon="4.532649722610556"><ele>121.0</ele><time>2026-04-05T15:23:08Z</time></trkpt><trkpt lat="43.9065142262522" lon="4.532716371284305"><ele>121.71428571428571</ele><time>2026-04-05T15:23:24Z</time></trkpt><trkpt lat="43.90644022792687" lon="4.532715416603309"><ele>122.42857142857142</ele><time>2026-04-05T15:23:29Z</time></trkpt><trkpt lat="43.906397829806544" lon="4.532782965550144"><ele>123.14285714285714</ele><time>2026-04-05T15:23:32Z</time></trkpt><trkpt lat="43.90636177669686" lon="4.532859610669634"><ele>123.85714285714286</ele><time>2026-04-05T15:23:41Z</time></trkpt><trkpt lat="43.90632037756276" lon="4.532926887274935"><ele>124.57142857142857</ele><time>2026-04-05T15:23:47Z</time></trkpt><trkpt lat="43.906260882852656" lon="4.532999156367332"><ele>125.28571428571428</ele><time>2026-04-05T15:23:51Z</time></trkpt><trkpt lat="43.90619992703069" lon="4.53303344355362"><ele>126.0</ele><time>2026-04-05T15:24:13Z</time></trkpt><trkpt lat="43.90613014244879" lon="4.533037225504261"><ele>127.66666666666667</ele><time>2026-04-05T15:24:36Z</time></trkpt><trkpt lat="43.90600863198718" lon="4.533001720947172"><ele>129.33333333333334</ele><time>2026-04-05T15:25:01.999Z</time></trkpt><trkpt lat="43.90598813407648" lon="4.533090967176107"><ele>131.0</ele><time>2026-04-05T15:25:13Z</time></trkpt><trkpt lat="43.905989756951975" lon="4.533179866855474"><ele>132.66666666666669</ele><time>2026-04-05T15:25:22Z</time></trkpt><trkpt lat="43.906008605780194" lon="4.533269633171038"><ele>134.33333333333334</ele><time>2026-04-05T15:25:30Z</time></trkpt><trkpt lat="43.905986378372916" lon="4.5333634220021795"><ele>136.0</ele><time>2026-04-05T15:25:47Z</time></trkpt><trkpt lat="43.90593798290294" lon="4.533433682738228"><ele>136.7142857142857</ele><time>2026-04-05T15:25:51Z</time></trkpt><trkpt lat="43.90589824555125" lon="4.5335027240173655"><ele>137.42857142857142</ele><time>2026-04-05T15:25:59Z</time></trkpt><trkpt lat="43.90585978274321" lon="4.533574485925535"><ele>138.14285714285714</ele><time>2026-04-05T15:26:02Z</time></trkpt><trkpt lat="43.9058690119278" lon="4.533672808121105"><ele>138.85714285714283</ele><time>2026-04-05T15:26:07Z</time></trkpt><trkpt lat="43.905927221997366" lon="4.533754461119805"><ele>139.57142857142856</ele><time>2026-04-05T15:26:10Z</time></trkpt><trkpt lat="43.905972221096654" lon="4.533868336517117"><ele>140.28571428571428</ele><time>2026-04-05T15:26:13Z</time></trkpt><trkpt lat="43.90599715384285" lon="4.533952522522806"><ele>141.0</ele><time>2026-04-05T15:26:18Z</time></trkpt><trkpt lat="43.90604851440796" lon="4.534025647658587"><ele>141.0</ele><time>2026-04-05T15:26:49.999Z</time></trkpt><trkpt lat="43.906113915164134" lon="4.534038555593699"><ele>141.0</ele><time>2026-04-05T15:26:52.999Z</time></trkpt><trkpt lat="43.9061826453948" lon="4.534059624097082"><ele>141.0</ele><time>2026-04-05T15:26:56.999Z</time></trkpt><trkpt lat="43.90625677572661" lon="4.534093528289276"><ele>141.0</ele><time>2026-04-05T15:27:00.999Z</time></trkpt><trkpt lat="43.906277844384526" lon="4.534177481782137"><ele>141.0</ele><time>2026-04-05T15:27:04.999Z</time></trkpt><trkpt lat="43.90633710940594" lon="4.534266425160508"><ele>141.0</ele><time>2026-04-05T15:27:10.999Z</time></trkpt><trkpt lat="43.90638998422371" lon="4.534314995895027"><ele>141.0</ele><time>2026-04-05T15:27:31Z</time></trkpt><trkpt lat="43.90640703889792" lon="4.534400342935046"><ele>141.0</ele><time>2026-04-05T15:27:43Z</time></trkpt><trkpt lat="43.906471558704105" lon="4.5344412926874496"><ele>141.0</ele><time>2026-04-05T15:28:33Z</time></trkpt><trkpt lat="43.90649739728795" lon="4.534549485577508"><ele>141.0</ele><time>2026-04-05T15:28:38Z</time></trkpt><trkpt lat="43.90652116014406" lon="4.53465961485753"><ele>141.0</ele><time>2026-04-05T15:28:40.999Z</time></trkpt><trkpt lat="43.90659519835551" lon="4.534681289075991"><ele>141.0</ele><time>2026-04-05T15:29:01.999Z</time></trkpt><trkpt lat="43.906659870549916" lon="4.534625178875873"><ele>141.0</ele><time>2026-04-05T15:29:04.999Z</time></trkpt><trkpt lat="43.90680162482376" lon="4.534509788869904"><ele>139.2</ele><time>2026-04-05T15:29:10.999Z</time></trkpt><trkpt lat="43.906976345414435" lon="4.534503112892592"><ele>137.39999999999998</ele><time>2026-04-05T15:29:18.999Z</time></trkpt><trkpt lat="43.907033269736694" lon="4.5344193299064806"><ele>135.6</ele><time>2026-04-05T15:29:20.999Z</time></trkpt><trkpt lat="43.90709899618774" lon="4.5343885426784105"><ele>133.79999999999998</ele><time>2026-04-05T15:29:22.999Z</time></trkpt><trkpt lat="43.907134412179516" lon="4.534466970810165"><ele>132.0</ele><time>2026-04-05T15:29:24.999Z</time></trkpt><trkpt lat="43.90713927393539" lon="4.534560464586609"><ele>132.0</ele><time>2026-04-05T15:29:26.999Z</time></trkpt><trkpt lat="43.907213416175296" lon="4.534640265354355"><ele>132.0</ele><time>2026-04-05T15:29:28.999Z</time></trkpt><trkpt lat="43.90728700612354" lon="4.534724867038492"><ele>132.0</ele><time>2026-04-05T15:29:30.999Z</time></trkpt><trkpt lat="43.90734522048442" lon="4.534848164239498"><ele>132.0</ele><time>2026-04-05T15:29:32.999Z</time></trkpt><trkpt lat="43.90735682557677" lon="4.534939782112552"><ele>132.0</ele><time>2026-04-05T15:29:34.999Z</time></trkpt><trkpt lat="43.90738371500591" lon="4.5350504956695525"><ele>132.0</ele><time>2026-04-05T15:29:58Z</time></trkpt><trkpt lat="43.90738069687231" lon="4.535188113393829"><ele>132.0</ele><time>2026-04-05T15:30:00.999Z</time></trkpt><trkpt lat="43.90736566351897" lon="4.535325168996254"><ele>132.0</ele><time>2026-04-05T15:30:02.999Z</time></trkpt><trkpt lat="43.907375385825084" lon="4.5354775625256645"><ele>132.0</ele><time>2026-04-05T15:30:04.999Z</time></trkpt><trkpt lat="43.9073795449847" lon="4.535579141878959"><ele>132.0</ele><time>2026-04-05T15:30:06.999Z</time></trkpt><trkpt lat="43.90737389181938" lon="4.535674826976324"><ele>132.0</ele><time>2026-04-05T15:30:08.999Z</time></trkpt><trkpt lat="43.90737986520515" lon="4.535829728142964"><ele>132.4</ele><time>2026-04-05T15:30:10.999Z</time></trkpt><trkpt lat="43.9073814067624" lon="4.535979191223071"><ele>132.79999999999998</ele><time>2026-04-05T15:30:12.999Z</time></trkpt><trkpt lat="43.907421323597994" lon="4.536072226331918"><ele>133.2</ele><time>2026-04-05T15:30:14.999Z</time></trkpt><trkpt lat="43.9074577061359" lon="4.536189144252297"><ele>133.6</ele><time>2026-04-05T15:30:17.999Z</time></trkpt><trkpt lat="43.90749794249048" lon="4.536290555845471"><ele>134.0</ele><time>2026-04-05T15:30:19.999Z</time></trkpt><trkpt lat="43.90756653675612" lon="4.53641487785522"><ele>134.0</ele><time>2026-04-05T15:30:21.999Z</time></trkpt><trkpt lat="43.90762109665827" lon="4.536587813881187"><ele>134.0</ele><time>2026-04-05T15:30:23.999Z</time></trkpt><trkpt lat="43.907671061041725" lon="4.536728090451389"><ele>134.0</ele><time>2026-04-05T15:30:25.999Z</time></trkpt><trkpt lat="43.90768180961204" lon="4.536845096790002"><ele>134.0</ele><time>2026-04-05T15:30:27.999Z</time></trkpt><trkpt lat="43.90767573078534" lon="4.536970799353452"><ele>134.0</ele><time>2026-04-05T15:30:29.999Z</time></trkpt><trkpt lat="43.90773409789196" lon="4.537071292906221"><ele>134.0</ele><time>2026-04-05T15:30:31.999Z</time></trkpt><trkpt lat="43.90778022452892" lon="4.537214180998285"><ele>134.0</ele><time>2026-04-05T15:30:33.999Z</time></trkpt><trkpt lat="43.9078169909664" lon="4.537361042758636"><ele>134.0</ele><time>2026-04-05T15:30:35.999Z</time></trkpt><trkpt lat="43.90784365373861" lon="4.537513566220657"><ele>134.0</ele><time>2026-04-05T15:30:37.999Z</time></trkpt><trkpt lat="43.90784379178081" lon="4.537626777749794"><ele>134.0</ele><time>2026-04-05T15:30:39.999Z</time></trkpt><trkpt lat="43.9078669608253" lon="4.537725960279631"><ele>134.0</ele><time>2026-04-05T15:30:41.999Z</time></trkpt><trkpt lat="43.90794774441113" lon="4.53786182297227"><ele>134.0</ele><time>2026-04-05T15:30:43.999Z</time></trkpt><trkpt lat="43.90800305113309" lon="4.537965131161818"><ele>134.0</ele><time>2026-04-05T15:30:44.999Z</time></trkpt><trkpt lat="43.908045474384295" lon="4.538052792641278"><ele>134.0</ele><time>2026-04-05T15:30:45.999Z</time></trkpt><trkpt lat="43.90810495515394" lon="4.538163061737712"><ele>134.0</ele><time>2026-04-05T15:30:46.999Z</time></trkpt><trkpt lat="43.90816374150061" lon="4.53827188162465"><ele>134.2</ele><time>2026-04-05T15:30:47.999Z</time></trkpt><trkpt lat="43.90820623512226" lon="4.538352675795279"><ele>134.4</ele><time>2026-04-05T15:30:48.999Z</time></trkpt><trkpt lat="43.90827357726469" lon="4.538467246315336"><ele>134.6</ele><time>2026-04-05T15:30:50.999Z</time></trkpt><trkpt lat="43.90832046881542" lon="4.538567315742156"><ele>134.8</ele><time>2026-04-05T15:30:52.999Z</time></trkpt><trkpt lat="43.9083847768861" lon="4.538687147237341"><ele>135.0</ele><time>2026-04-05T15:30:54.999Z</time></trkpt><trkpt lat="43.90844467686752" lon="4.538795447414182"><ele>135.0</ele><time>2026-04-05T15:30:56.999Z</time></trkpt><trkpt lat="43.90851059656408" lon="4.53893003426673"><ele>135.0</ele><time>2026-04-05T15:30:58.999Z</time></trkpt><trkpt lat="43.90854361490154" lon="4.539063195842719"><ele>135.0</ele><time>2026-04-05T15:31:00.999Z</time></trkpt><trkpt lat="43.90858863809242" lon="4.5391366453257875"><ele>135.0</ele><time>2026-04-05T15:31:01.999Z</time></trkpt><trkpt lat="43.90863822962023" lon="4.539198673852581"><ele>135.0</ele><time>2026-04-05T15:31:02.999Z</time></trkpt><trkpt lat="43.90870458152379" lon="4.539277879841061"><ele>135.0</ele><time>2026-04-05T15:31:04.999Z</time></trkpt><trkpt lat="43.908768812526866" lon="4.539358327999723"><ele>135.0</ele><time>2026-04-05T15:31:14.999Z</time></trkpt><trkpt lat="43.9088509042771" lon="4.53935153380845"><ele>135.0</ele><time>2026-04-05T15:31:16.999Z</time></trkpt><trkpt lat="43.90891709292157" lon="4.539319925843605"><ele>135.0</ele><time>2026-04-05T15:31:20.999Z</time></trkpt><trkpt lat="43.908963480963465" lon="4.539401176751432"><ele>135.0</ele><time>2026-04-05T15:31:22.999Z</time></trkpt><trkpt lat="43.90901092019365" lon="4.539495007066275"><ele>135.0</ele><time>2026-04-05T15:31:24.999Z</time></trkpt><trkpt lat="43.9090958047403" lon="4.53960480571872"><ele>135.0</ele><time>2026-04-05T15:31:26.999Z</time></trkpt><trkpt lat="43.90914146390788" lon="4.5396905548468025"><ele>134.6</ele><time>2026-04-05T15:31:27.999Z</time></trkpt><trkpt lat="43.90919640765946" lon="4.5397644949661045"><ele>134.2</ele><time>2026-04-05T15:31:28.999Z</time></trkpt><trkpt lat="43.9092748492664" lon="4.539896190481966"><ele>133.8</ele><time>2026-04-05T15:31:30.999Z</time></trkpt><trkpt lat="43.90934342260191" lon="4.539978644694789"><ele>133.4</ele><time>2026-04-05T15:31:32.999Z</time></trkpt><trkpt lat="43.909399705957384" lon="4.540098485997041"><ele>133.0</ele><time>2026-04-05T15:31:34.999Z</time></trkpt><trkpt lat="43.909499717299795" lon="4.5401340628559375"><ele>133.0</ele><time>2026-04-05T15:31:36.999Z</time></trkpt><trkpt lat="43.90955411468143" lon="4.540202593646533"><ele>133.0</ele><time>2026-04-05T15:31:49.999Z</time></trkpt><trkpt lat="43.909619019932336" lon="4.5402370546915245"><ele>133.0</ele><time>2026-04-05T15:31:54Z</time></trkpt><trkpt lat="43.909670846159706" lon="4.540333453169228"><ele>133.0</ele><time>2026-04-05T15:31:57Z</time></trkpt><trkpt lat="43.90973217589339" lon="4.540353929028439"><ele>133.0</ele><time>2026-04-05T15:32:00Z</time></trkpt><trkpt lat="43.90976447231025" lon="4.540429216315015"><ele>133.0</ele><time>2026-04-05T15:32:22Z</time></trkpt><trkpt lat="43.9097794326934" lon="4.5405286738557935"><ele>133.0</ele><time>2026-04-05T15:32:46.999Z</time></trkpt><trkpt lat="43.90979787455073" lon="4.540623613784995"><ele>132.5</ele><time>2026-04-05T15:32:51.999Z</time></trkpt><trkpt lat="43.90985182078667" lon="4.540725096970401"><ele>132.0</ele><time>2026-04-05T15:32:54.999Z</time></trkpt><trkpt lat="43.90992997801083" lon="4.5407553515929004"><ele>131.5</ele><time>2026-04-05T15:32:56.999Z</time></trkpt><trkpt lat="43.90999670071619" lon="4.540744846177896"><ele>131.0</ele><time>2026-04-05T15:32:58.999Z</time></trkpt><trkpt lat="43.91007285797341" lon="4.54076254628408"><ele>130.5</ele><time>2026-04-05T15:33:01.999Z</time></trkpt><trkpt lat="43.91013354258477" lon="4.540816912627439"><ele>130.0</ele><time>2026-04-05T15:33:03.999Z</time></trkpt><trkpt lat="43.91015109634938" lon="4.540919141455531"><ele>129.2857142857143</ele><time>2026-04-05T15:33:06.999Z</time></trkpt><trkpt lat="43.910227511840226" lon="4.54094547217976"><ele>128.57142857142858</ele><time>2026-04-05T15:33:08.999Z</time></trkpt><trkpt lat="43.91030977293969" lon="4.540976525646082"><ele>127.85714285714286</ele><time>2026-04-05T15:33:10.999Z</time></trkpt><trkpt lat="43.910375925719634" lon="4.540986034199867"><ele>127.14285714285715</ele><time>2026-04-05T15:33:17.999Z</time></trkpt><trkpt lat="43.91043294384227" lon="4.541039529851533"><ele>126.42857142857144</ele><time>2026-04-05T15:33:19.999Z</time></trkpt><trkpt lat="43.9104724292327" lon="4.541124980989517"><ele>125.71428571428571</ele><time>2026-04-05T15:33:21.999Z</time></trkpt><trkpt lat="43.910540001896464" lon="4.541140733152827"><ele>125.0</ele><time>2026-04-05T15:33:24.999Z</time></trkpt><trkpt lat="43.91060135392935" lon="4.541204058813925"><ele>124.0</ele><time>2026-04-05T15:33:27.999Z</time></trkpt><trkpt lat="43.910658113824496" lon="4.541280945918532"><ele>123.0</ele><time>2026-04-05T15:33:29.999Z</time></trkpt><trkpt lat="43.91071448125593" lon="4.541380442367316"><ele>122.0</ele><time>2026-04-05T15:33:31.999Z</time></trkpt><trkpt lat="43.91081770110079" lon="4.541455339667382"><ele>121.0</ele><time>2026-04-05T15:33:34Z</time></trkpt><trkpt lat="43.91092080184906" lon="4.541516355669099"><ele>120.0</ele><time>2026-04-05T15:33:36Z</time></trkpt><trkpt lat="43.91101140587465" lon="4.541526986290995"><ele>119.83333333333333</ele><time>2026-04-05T15:33:38Z</time></trkpt><trkpt lat="43.911095174034564" lon="4.541583960123325"><ele>119.66666666666666</ele><time>2026-04-05T15:33:40Z</time></trkpt><trkpt lat="43.91116019631302" lon="4.541673050246902"><ele>119.5</ele><time>2026-04-05T15:33:42Z</time></trkpt><trkpt lat="43.911213566757944" lon="4.541752841752908"><ele>119.33333333333333</ele><time>2026-04-05T15:33:44Z</time></trkpt><trkpt lat="43.91127489109433" lon="4.541789817627505"><ele>119.16666666666666</ele><time>2026-04-05T15:33:46Z</time></trkpt><trkpt lat="43.91128286527696" lon="4.541880902064566"><ele>119.0</ele><time>2026-04-05T15:33:49Z</time></trkpt><trkpt lat="43.91134809845167" lon="4.541870937146387"><ele>118.99999999999999</ele><time>2026-04-05T15:35:12Z</time></trkpt><trkpt lat="43.911387163228994" lon="4.541781366206144"><ele>119.0</ele><time>2026-04-05T15:35:14Z</time></trkpt><trkpt lat="43.91142657779848" lon="4.541659286334946"><ele>119.0</ele><time>2026-04-05T15:35:16Z</time></trkpt><trkpt lat="43.91148748661578" lon="4.541579302618419"><ele>119.0</ele><time>2026-04-05T15:35:47.001Z</time></trkpt><trkpt lat="43.91157085816402" lon="4.541483851874593"><ele>118.99999999999999</ele><time>2026-04-05T15:35:49.001Z</time></trkpt><trkpt lat="43.911640345374884" lon="4.541425044173264"><ele>119.0</ele><time>2026-04-05T15:35:52.001Z</time></trkpt><trkpt lat="43.91169492210533" lon="4.541338886805154"><ele>118.0</ele><time>2026-04-05T15:35:55Z</time></trkpt><trkpt lat="43.91179404434052" lon="4.541206719597292"><ele>117.0</ele><time>2026-04-05T15:35:57Z</time></trkpt><trkpt lat="43.911870220065666" lon="4.541110155625169"><ele>116.0</ele><time>2026-04-05T15:35:59Z</time></trkpt><trkpt lat="43.911930101643726" lon="4.54106175772707"><ele>115.0</ele><time>2026-04-05T15:36:31Z</time></trkpt><trkpt lat="43.912011841461236" lon="4.541129165187266"><ele>114.0</ele><time>2026-04-05T15:36:34Z</time></trkpt><trkpt lat="43.91205044128442" lon="4.541217398215256"><ele>114.0</ele><time>2026-04-05T15:36:36Z</time></trkpt><trkpt lat="43.91215092546966" lon="4.541305646411297"><ele>114.0</ele><time>2026-04-05T15:36:38Z</time></trkpt><trkpt lat="43.91222140878558" lon="4.541348550058806"><ele>114.0</ele><time>2026-04-05T15:36:39Z</time></trkpt><trkpt lat="43.91230161576822" lon="4.5413770566799805"><ele>114.0</ele><time>2026-04-05T15:36:40Z</time></trkpt><trkpt lat="43.91237831922346" lon="4.541389963135834"><ele>114.0</ele><time>2026-04-05T15:36:41Z</time></trkpt><trkpt lat="43.91245143485149" lon="4.541403023403776"><ele>114.0</ele><time>2026-04-05T15:36:42Z</time></trkpt><trkpt lat="43.91252483476477" lon="4.541432245791326"><ele>113.0</ele><time>2026-04-05T15:36:43Z</time></trkpt><trkpt lat="43.91258896637298" lon="4.541468399018097"><ele>112.0</ele><time>2026-04-05T15:36:44Z</time></trkpt><trkpt lat="43.91264934880359" lon="4.541508293086774"><ele>111.0</ele><time>2026-04-05T15:36:45Z</time></trkpt><trkpt lat="43.912723276760644" lon="4.541546761167166"><ele>110.0</ele><time>2026-04-05T15:36:47Z</time></trkpt><trkpt lat="43.91284824929864" lon="4.541563828584494"><ele>109.0</ele><time>2026-04-05T15:36:57Z</time></trkpt><trkpt lat="43.912956008695474" lon="4.541608752509787"><ele>109.00000000000001</ele><time>2026-04-05T15:36:59Z</time></trkpt><trkpt lat="43.913017359969366" lon="4.541709705008817"><ele>109.0</ele><time>2026-04-05T15:37:01Z</time></trkpt><trkpt lat="43.91305417455277" lon="4.541792961008519"><ele>109.0</ele><time>2026-04-05T15:37:02Z</time></trkpt><trkpt lat="43.91313933868251" lon="4.541905652732162"><ele>109.0</ele><time>2026-04-05T15:37:04Z</time></trkpt><trkpt lat="43.913205274819376" lon="4.541942442633232"><ele>109.00000000000001</ele><time>2026-04-05T15:37:05Z</time></trkpt><trkpt lat="43.91328091828226" lon="4.54199112294338"><ele>109.0</ele><time>2026-04-05T15:37:06Z</time></trkpt><trkpt lat="43.91336593394297" lon="4.542035404677429"><ele>109.2</ele><time>2026-04-05T15:37:07Z</time></trkpt><trkpt lat="43.913459085518" lon="4.542077337046382"><ele>109.4</ele><time>2026-04-05T15:37:08Z</time></trkpt><trkpt lat="43.913558540987275" lon="4.542120252971343"><ele>109.6</ele><time>2026-04-05T15:37:09Z</time></trkpt><trkpt lat="43.91366397981948" lon="4.542152223379658"><ele>109.8</ele><time>2026-04-05T15:37:10Z</time></trkpt><trkpt lat="43.91378061825724" lon="4.54217495889789"><ele>110.0</ele><time>2026-04-05T15:37:11Z</time></trkpt><trkpt lat="43.91389482466141" lon="4.542191131834211"><ele>110.0</ele><time>2026-04-05T15:37:12Z</time></trkpt><trkpt lat="43.91401194022842" lon="4.542211149894749"><ele>110.0</ele><time>2026-04-05T15:37:13Z</time></trkpt><trkpt lat="43.91411405725959" lon="4.542234351039709"><ele>110.0</ele><time>2026-04-05T15:37:14Z</time></trkpt><trkpt lat="43.91421585046133" lon="4.542249589082306"><ele>110.0</ele><time>2026-04-05T15:37:15Z</time></trkpt><trkpt lat="43.91432638699681" lon="4.542266852074332"><ele>110.0</ele><time>2026-04-05T15:37:16Z</time></trkpt><trkpt lat="43.91442760331341" lon="4.542274641345411"><ele>109.2</ele><time>2026-04-05T15:37:17Z</time></trkpt><trkpt lat="43.91452931848926" lon="4.5422654229349435"><ele>108.4</ele><time>2026-04-05T15:37:18Z</time></trkpt><trkpt lat="43.91462364124266" lon="4.542255640140696"><ele>107.6</ele><time>2026-04-05T15:37:19Z</time></trkpt><trkpt lat="43.91471766758355" lon="4.542255280924382"><ele>106.8</ele><time>2026-04-05T15:37:20Z</time></trkpt><trkpt lat="43.914808557123735" lon="4.542270072641594"><ele>106.0</ele><time>2026-04-05T15:37:21Z</time></trkpt><trkpt lat="43.914899943075426" lon="4.542273262291976"><ele>106.0</ele><time>2026-04-05T15:37:22Z</time></trkpt><trkpt lat="43.91498095511892" lon="4.5422719413374635"><ele>106.0</ele><time>2026-04-05T15:37:23Z</time></trkpt><trkpt lat="43.91506688479351" lon="4.5422646277065155"><ele>106.0</ele><time>2026-04-05T15:37:24Z</time></trkpt><trkpt lat="43.915147255491775" lon="4.5422495639909695"><ele>106.0</ele><time>2026-04-05T15:37:25Z</time></trkpt><trkpt lat="43.915232921881746" lon="4.542237388294879"><ele>106.0</ele><time>2026-04-05T15:37:26Z</time></trkpt><trkpt lat="43.91535792486476" lon="4.5422534972338955"><ele>105.33333333333334</ele><time>2026-04-05T15:37:28Z</time></trkpt><trkpt lat="43.91543220961851" lon="4.54226876817698"><ele>104.66666666666667</ele><time>2026-04-05T15:37:29Z</time></trkpt><trkpt lat="43.91550091134215" lon="4.542272052767069"><ele>104.0</ele><time>2026-04-05T15:37:30Z</time></trkpt><trkpt lat="43.915609009277695" lon="4.542272912894849"><ele>103.33333333333334</ele><time>2026-04-05T15:37:32Z</time></trkpt><trkpt lat="43.91572809618962" lon="4.542298124000109"><ele>102.66666666666667</ele><time>2026-04-05T15:37:34Z</time></trkpt><trkpt lat="43.91580095864634" lon="4.542308937062917"><ele>102.0</ele><time>2026-04-05T15:37:35Z</time></trkpt><trkpt lat="43.91589708796397" lon="4.542323965944842"><ele>101.16666666666667</ele><time>2026-04-05T15:37:37Z</time></trkpt><trkpt lat="43.915927398724826" lon="4.542401223778304"><ele>100.33333333333334</ele><time>2026-04-05T15:37:52.001Z</time></trkpt><trkpt lat="43.91599332693915" lon="4.5424547717497825"><ele>99.5</ele><time>2026-04-05T15:37:54.001Z</time></trkpt><trkpt lat="43.91605394691653" lon="4.542572376978222"><ele>98.66666666666667</ele><time>2026-04-05T15:37:57.001Z</time></trkpt><trkpt lat="43.91614374494971" lon="4.542633427171152"><ele>97.83333333333334</ele><time>2026-04-05T15:37:59.001Z</time></trkpt><trkpt lat="43.91620362886051" lon="4.542668280691028"><ele>97.0</ele><time>2026-04-05T15:38:01.001Z</time></trkpt><trkpt lat="43.91623837182848" lon="4.5428000299951306"><ele>99.33333333333334</ele><time>2026-04-05T15:38:04Z</time></trkpt><trkpt lat="43.916275447065736" lon="4.542909039777009"><ele>101.66666666666667</ele><time>2026-04-05T15:38:06Z</time></trkpt><trkpt lat="43.9162123915033" lon="4.543009661248341"><ele>104.0</ele><time>2026-04-05T15:38:10Z</time></trkpt><trkpt lat="43.91620425309014" lon="4.543110748855579"><ele>106.33333333333334</ele><time>2026-04-05T15:38:13Z</time></trkpt><trkpt lat="43.91618129723356" lon="4.5432054317895645"><ele>108.66666666666667</ele><time>2026-04-05T15:38:19Z</time></trkpt><trkpt lat="43.916192507265045" lon="4.54332073910934"><ele>111.0</ele><time>2026-04-05T15:38:23Z</time></trkpt><trkpt lat="43.91617207134122" lon="4.543424533882559"><ele>111.0</ele><time>2026-04-05T15:38:25Z</time></trkpt><trkpt lat="43.91618526819721" lon="4.5435346284680325"><ele>111.0</ele><time>2026-04-05T15:38:27Z</time></trkpt><trkpt lat="43.91625436777813" lon="4.543624782727295"><ele>111.0</ele><time>2026-04-05T15:38:29Z</time></trkpt><trkpt lat="43.916320255009296" lon="4.543724488631748"><ele>111.0</ele><time>2026-04-05T15:38:31Z</time></trkpt><trkpt lat="43.91637933922276" lon="4.543829316009074"><ele>111.0</ele><time>2026-04-05T15:38:33Z</time></trkpt><trkpt lat="43.916464780360286" lon="4.543900258158382"><ele>112.42857142857142</ele><time>2026-04-05T15:38:35Z</time></trkpt><trkpt lat="43.916529583361026" lon="4.543899357635138"><ele>113.85714285714286</ele><time>2026-04-05T15:38:37Z</time></trkpt><trkpt lat="43.91653451613381" lon="4.54399984446606"><ele>115.28571428571428</ele><time>2026-04-05T15:38:39Z</time></trkpt><trkpt lat="43.9165166057894" lon="4.544111831724902"><ele>116.71428571428571</ele><time>2026-04-05T15:38:41Z</time></trkpt><trkpt lat="43.91653529570266" lon="4.544197910213135"><ele>118.14285714285714</ele><time>2026-04-05T15:38:43Z</time></trkpt><trkpt lat="43.91647839793853" lon="4.544273827508765"><ele>119.57142857142857</ele><time>2026-04-05T15:38:47Z</time></trkpt><trkpt lat="43.91645346757182" lon="4.544365872166783"><ele>121.0</ele><time>2026-04-05T15:38:49Z</time></trkpt><trkpt lat="43.91641142115857" lon="4.544442062637796"><ele>121.00000000000001</ele><time>2026-04-05T15:38:51Z</time></trkpt><trkpt lat="43.91634506867933" lon="4.544512571581411"><ele>121.0</ele><time>2026-04-05T15:38:54Z</time></trkpt><trkpt lat="43.91634835590796" lon="4.544640688130308"><ele>121.0</ele><time>2026-04-05T15:38:57Z</time></trkpt><trkpt lat="43.916395605136806" lon="4.54472345687997"><ele>121.0</ele><time>2026-04-05T15:39:09Z</time></trkpt><trkpt lat="43.91635844512393" lon="4.5448165887964125"><ele>121.00000000000001</ele><time>2026-04-05T15:39:13Z</time></trkpt><trkpt lat="43.91635578273687" lon="4.5449211005521475"><ele>121.0</ele><time>2026-04-05T15:39:17Z</time></trkpt><trkpt lat="43.91635654243142" lon="4.545013798763769"><ele>122.19999999999999</ele><time>2026-04-05T15:39:21Z</time></trkpt><trkpt lat="43.916309236043965" lon="4.545097571060745"><ele>123.39999999999999</ele><time>2026-04-05T15:40:26Z</time></trkpt><trkpt lat="43.91621392115395" lon="4.545104932528993"><ele>124.6</ele><time>2026-04-05T15:40:28Z</time></trkpt><trkpt lat="43.916143228281044" lon="4.545135781198225"><ele>125.8</ele><time>2026-04-05T15:40:30Z</time></trkpt><trkpt lat="43.916058704365305" lon="4.5452119424599"><ele>127.0</ele><time>2026-04-05T15:40:32Z</time></trkpt><trkpt lat="43.915947175144474" lon="4.545209170602616"><ele>127.19999999999999</ele><time>2026-04-05T15:40:34Z</time></trkpt><trkpt lat="43.91586521616442" lon="4.545256941741309"><ele>127.39999999999999</ele><time>2026-04-05T15:40:36Z</time></trkpt><trkpt lat="43.915761714798435" lon="4.545332201259706"><ele>127.60000000000001</ele><time>2026-04-05T15:40:38Z</time></trkpt><trkpt lat="43.91566412081623" lon="4.54537690230577"><ele>127.80000000000001</ele><time>2026-04-05T15:40:40Z</time></trkpt><trkpt lat="43.915584016994444" lon="4.545371842248251"><ele>128.0</ele><time>2026-04-05T15:40:42Z</time></trkpt><trkpt lat="43.91548273360715" lon="4.54538085064112"><ele>128.16666666666666</ele><time>2026-04-05T15:40:44Z</time></trkpt><trkpt lat="43.91540917235954" lon="4.54541014499303"><ele>128.33333333333331</ele><time>2026-04-05T15:40:45Z</time></trkpt><trkpt lat="43.915328703665196" lon="4.545439817145388"><ele>128.5</ele><time>2026-04-05T15:40:46Z</time></trkpt><trkpt lat="43.915255908747845" lon="4.545454803489896"><ele>128.66666666666666</ele><time>2026-04-05T15:40:47Z</time></trkpt><trkpt lat="43.91516927548175" lon="4.545454275251723"><ele>128.83333333333334</ele><time>2026-04-05T15:40:49Z</time></trkpt><trkpt lat="43.9150837416644" lon="4.54543019483033"><ele>129.0</ele><time>2026-04-05T15:40:51Z</time></trkpt><trkpt lat="43.915008908094734" lon="4.5453942410451145"><ele>129.5</ele><time>2026-04-05T15:40:53Z</time></trkpt><trkpt lat="43.91496847514111" lon="4.545322568658034"><ele>130.0</ele><time>2026-04-05T15:40:55Z</time></trkpt><trkpt lat="43.91492917778833" lon="4.5452274594799595"><ele>130.5</ele><time>2026-04-05T15:41:33.999Z</time></trkpt><trkpt lat="43.91484279316654" lon="4.5451721193643735"><ele>131.0</ele><time>2026-04-05T15:41:36.999Z</time></trkpt><trkpt lat="43.91479335033745" lon="4.545079685314346"><ele>131.5</ele><time>2026-04-05T15:41:38.999Z</time></trkpt><trkpt lat="43.91472331857832" lon="4.545016160423575"><ele>132.0</ele><time>2026-04-05T15:41:40.999Z</time></trkpt><trkpt lat="43.91467079213439" lon="4.544886428963111"><ele>132.0</ele><time>2026-04-05T15:41:43.999Z</time></trkpt><trkpt lat="43.91463709329732" lon="4.544748813178183"><ele>132.0</ele><time>2026-04-05T15:41:45.999Z</time></trkpt><trkpt lat="43.914621557968026" lon="4.544661846095361"><ele>132.0</ele><time>2026-04-05T15:41:47.999Z</time></trkpt><trkpt lat="43.91458223070452" lon="4.544535096158456"><ele>132.0</ele><time>2026-04-05T15:41:50.999Z</time></trkpt><trkpt lat="43.91447921179855" lon="4.544467915180903"><ele>132.0</ele><time>2026-04-05T15:41:52.999Z</time></trkpt><trkpt lat="43.91439939556995" lon="4.544446325975072"><ele>131.66666666666666</ele><time>2026-04-05T15:41:54.999Z</time></trkpt><trkpt lat="43.91433755267402" lon="4.544418005562087"><ele>131.33333333333334</ele><time>2026-04-05T15:41:57Z</time></trkpt><trkpt lat="43.91425240423641" lon="4.544373050983606"><ele>131.0</ele><time>2026-04-05T15:42:01Z</time></trkpt><trkpt lat="43.91418869599919" lon="4.544317904020352"><ele>130.66666666666669</ele><time>2026-04-05T15:42:03Z</time></trkpt><trkpt lat="43.91407723740716" lon="4.5442405243557475"><ele>130.33333333333334</ele><time>2026-04-05T15:42:06Z</time></trkpt><trkpt lat="43.9140289320213" lon="4.544170478723898"><ele>130.0</ele><time>2026-04-05T15:42:08Z</time></trkpt><trkpt lat="43.91397462486237" lon="4.544097362350386"><ele>130.0</ele><time>2026-04-05T15:42:11Z</time></trkpt><trkpt lat="43.913910089021215" lon="4.544033782004689"><ele>130.0</ele><time>2026-04-05T15:42:14Z</time></trkpt><trkpt lat="43.91384823500836" lon="4.543982784123599"><ele>130.0</ele><time>2026-04-05T15:42:16Z</time></trkpt><trkpt lat="43.91377126547077" lon="4.543954741289571"><ele>130.0</ele><time>2026-04-05T15:42:18Z</time></trkpt><trkpt lat="43.91370604709189" lon="4.543911029023161"><ele>130.0</ele><time>2026-04-05T15:42:59Z</time></trkpt><trkpt lat="43.913634766220305" lon="4.543885727496921"><ele>130.0</ele><time>2026-04-05T15:43:02Z</time></trkpt><trkpt lat="43.91353662624222" lon="4.5438655030799024"><ele>130.0</ele><time>2026-04-05T15:43:04Z</time></trkpt><trkpt lat="43.91347965735668" lon="4.543785324779526"><ele>130.0</ele><time>2026-04-05T15:43:06Z</time></trkpt><trkpt lat="43.913407925019506" lon="4.543726060657933"><ele>130.0</ele><time>2026-04-05T15:43:09Z</time></trkpt><trkpt lat="43.91333766404971" lon="4.543684456082966"><ele>130.0</ele><time>2026-04-05T15:43:15Z</time></trkpt><trkpt lat="43.913275695471704" lon="4.543613204809192"><ele>130.0</ele><time>2026-04-05T15:43:18Z</time></trkpt><trkpt lat="43.91320700045177" lon="4.543513255630911"><ele>130.0</ele><time>2026-04-05T15:43:20.999Z</time></trkpt><trkpt lat="43.913147541382344" lon="4.543454031936032"><ele>129.5</ele><time>2026-04-05T15:43:22.999Z</time></trkpt><trkpt lat="43.913082449120076" lon="4.543381557254678"><ele>129.0</ele><time>2026-04-05T15:43:24.999Z</time></trkpt><trkpt lat="43.91300892005794" lon="4.543296440840847"><ele>128.5</ele><time>2026-04-05T15:43:27.999Z</time></trkpt><trkpt lat="43.91296115110008" lon="4.543239008811904"><ele>128.0</ele><time>2026-04-05T15:43:30.999Z</time></trkpt><trkpt lat="43.9129041093019" lon="4.543142820788534"><ele>127.50000000000001</ele><time>2026-04-05T15:43:33.999Z</time></trkpt><trkpt lat="43.91282636481518" lon="4.543054596107321"><ele>127.0</ele><time>2026-04-05T15:43:36.999Z</time></trkpt><trkpt lat="43.91277046858184" lon="4.543002945506423"><ele>127.00000000000001</ele><time>2026-04-05T15:43:38.999Z</time></trkpt><trkpt lat="43.91271045487511" lon="4.5429329206844375"><ele>127.0</ele><time>2026-04-05T15:43:40.999Z</time></trkpt><trkpt lat="43.91266539492252" lon="4.542869850426107"><ele>127.0</ele><time>2026-04-05T15:43:43.999Z</time></trkpt><trkpt lat="43.91259494491577" lon="4.542866828856447"><ele>127.0</ele><time>2026-04-05T15:43:46.999Z</time></trkpt><trkpt lat="43.912501358989815" lon="4.542803899490991"><ele>127.00000000000001</ele><time>2026-04-05T15:43:49.999Z</time></trkpt><trkpt lat="43.91245124818508" lon="4.542749015566684"><ele>127.0</ele><time>2026-04-05T15:43:52.999Z</time></trkpt><trkpt lat="43.91239247494441" lon="4.542694913449754"><ele>126.14285714285714</ele><time>2026-04-05T15:43:55.999Z</time></trkpt><trkpt lat="43.91234099308489" lon="4.542626555407335"><ele>125.28571428571428</ele><time>2026-04-05T15:43:59.999Z</time></trkpt><trkpt lat="43.91230072101811" lon="4.542552087241095"><ele>124.42857142857142</ele><time>2026-04-05T15:44:04Z</time></trkpt><trkpt lat="43.91225483819381" lon="4.5424848902087795"><ele>123.57142857142857</ele><time>2026-04-05T15:44:09Z</time></trkpt><trkpt lat="43.91221953241808" lon="4.542405258525784"><ele>122.7142857142857</ele><time>2026-04-05T15:44:30Z</time></trkpt><trkpt lat="43.9121756968996" lon="4.54234224534437"><ele>121.85714285714285</ele><time>2026-04-05T15:44:43Z</time></trkpt><trkpt lat="43.91209430598154" lon="4.542286293028597"><ele>121.0</ele><time>2026-04-05T15:44:46Z</time></trkpt><trkpt lat="43.912028896049186" lon="4.542259807228328"><ele>121.00000000000001</ele><time>2026-04-05T15:44:48Z</time></trkpt><trkpt lat="43.91195088831811" lon="4.542223590422499"><ele>121.0</ele><time>2026-04-05T15:44:50Z</time></trkpt><trkpt lat="43.91187680123558" lon="4.542241643283051"><ele>121.0</ele><time>2026-04-05T15:44:53Z</time></trkpt><trkpt lat="43.911805666494665" lon="4.54219418318215"><ele>121.0</ele><time>2026-04-05T15:44:58Z</time></trkpt><trkpt lat="43.911747791609365" lon="4.542148754360089"><ele>121.00000000000001</ele><time>2026-04-05T15:45:00Z</time></trkpt><trkpt lat="43.9116661585672" lon="4.542091311350864"><ele>121.0</ele><time>2026-04-05T15:45:02Z</time></trkpt><trkpt lat="43.91161838193177" lon="4.5420328995012635"><ele>120.66666666666667</ele><time>2026-04-05T15:45:05Z</time></trkpt><trkpt lat="43.91155120032795" lon="4.541958095347576"><ele>120.33333333333334</ele><time>2026-04-05T15:45:08Z</time></trkpt><trkpt lat="43.91148898779577" lon="4.541896484415748"><ele>120.0</ele><time>2026-04-05T15:45:11Z</time></trkpt><trkpt lat="43.91145183430563" lon="4.541791971671575"><ele>119.66666666666666</ele><time>2026-04-05T15:45:15Z</time></trkpt><trkpt lat="43.91138740370207" lon="4.541740726933443"><ele>119.33333333333333</ele><time>2026-04-05T15:45:46.999Z</time></trkpt><trkpt lat="43.91141394762743" lon="4.541634669562788"><ele>119.0</ele><time>2026-04-05T15:45:54.999Z</time></trkpt><trkpt lat="43.91148322436011" lon="4.541567786101864"><ele>118.99999999999999</ele><time>2026-04-05T15:45:57.999Z</time></trkpt><trkpt lat="43.911441393791286" lon="4.541649054006002"><ele>119.0</ele><time>2026-04-05T15:46:20Z</time></trkpt><trkpt lat="43.91143658206035" lon="4.541512885971375"><ele>119.0</ele><time>2026-04-05T15:46:42Z</time></trkpt><trkpt lat="43.91144149756189" lon="4.541423068950378"><ele>119.0</ele><time>2026-04-05T15:46:44Z</time></trkpt><trkpt lat="43.911462842280514" lon="4.5412887067411525"><ele>118.99999999999999</ele><time>2026-04-05T15:46:47Z</time></trkpt><trkpt lat="43.91146043689723" lon="4.5411506115950315"><ele>119.0</ele><time>2026-04-05T15:46:49Z</time></trkpt><trkpt lat="43.91145329702099" lon="4.54102251091162"><ele>118.66666666666666</ele><time>2026-04-05T15:46:51Z</time></trkpt><trkpt lat="43.91145989236103" lon="4.540850208587112"><ele>118.33333333333333</ele><time>2026-04-05T15:46:53Z</time></trkpt><trkpt lat="43.9114721347309" lon="4.540743505121907"><ele>118.0</ele><time>2026-04-05T15:46:54Z</time></trkpt><trkpt lat="43.911482139817736" lon="4.540648647286771"><ele>117.66666666666666</ele><time>2026-04-05T15:46:55Z</time></trkpt><trkpt lat="43.91147050469903" lon="4.540513369313359"><ele>117.33333333333333</ele><time>2026-04-05T15:46:57Z</time></trkpt><trkpt lat="43.91145947231457" lon="4.540417132554315"><ele>117.0</ele><time>2026-04-05T15:47:32.999Z</time></trkpt><trkpt lat="43.911463149239296" lon="4.540308902650896"><ele>116.5</ele><time>2026-04-05T15:47:35.999Z</time></trkpt><trkpt lat="43.911453025164526" lon="4.540195572195358"><ele>116.0</ele><time>2026-04-05T15:47:54.999Z</time></trkpt><trkpt lat="43.91146577963439" lon="4.54010699784684"><ele>115.5</ele><time>2026-04-05T15:47:56.999Z</time></trkpt><trkpt lat="43.91145285249091" lon="4.539994581246851"><ele>115.0</ele><time>2026-04-05T15:47:58.999Z</time></trkpt><trkpt lat="43.911411681132996" lon="4.539878349379507"><ele>114.5</ele><time>2026-04-05T15:48:00.999Z</time></trkpt><trkpt lat="43.911388747624834" lon="4.5397731180544865"><ele>114.0</ele><time>2026-04-05T15:48:02.999Z</time></trkpt><trkpt lat="43.9113747680984" lon="4.5396479357256405"><ele>114.0</ele><time>2026-04-05T15:48:04.999Z</time></trkpt><trkpt lat="43.911347107741165" lon="4.539566501513919"><ele>114.0</ele><time>2026-04-05T15:48:05.999Z</time></trkpt><trkpt lat="43.91132453802706" lon="4.539405410613693"><ele>114.0</ele><time>2026-04-05T15:48:07.999Z</time></trkpt><trkpt lat="43.91132889997976" lon="4.539266641994176"><ele>114.0</ele><time>2026-04-05T15:48:09.999Z</time></trkpt><trkpt lat="43.91132301819966" lon="4.539167289952391"><ele>114.0</ele><time>2026-04-05T15:48:10.999Z</time></trkpt><trkpt lat="43.91132528538934" lon="4.538999950128627"><ele>113.33333333333333</ele><time>2026-04-05T15:48:12.999Z</time></trkpt><trkpt lat="43.911329696575905" lon="4.538895049099296"><ele>112.66666666666666</ele><time>2026-04-05T15:48:13.999Z</time></trkpt><trkpt lat="43.911343439296424" lon="4.5387937181955715"><ele>112.0</ele><time>2026-04-05T15:48:15Z</time></trkpt><trkpt lat="43.91137017801478" lon="4.538714468955873"><ele>111.33333333333333</ele><time>2026-04-05T15:48:16Z</time></trkpt><trkpt lat="43.91139223804784" lon="4.538629881377025"><ele>110.66666666666666</ele><time>2026-04-05T15:48:17Z</time></trkpt><trkpt lat="43.91139464689318" lon="4.5384483714401505"><ele>110.0</ele><time>2026-04-05T15:48:19Z</time></trkpt><trkpt lat="43.911379470553584" lon="4.538348154833501"><ele>109.66666666666666</ele><time>2026-04-05T15:48:20Z</time></trkpt><trkpt lat="43.911373544412136" lon="4.538245875321969"><ele>109.33333333333333</ele><time>2026-04-05T15:48:21Z</time></trkpt><trkpt lat="43.91137561649663" lon="4.53813709120089"><ele>109.0</ele><time>2026-04-05T15:48:22Z</time></trkpt><trkpt lat="43.91138936640343" lon="4.538019766156235"><ele>108.66666666666666</ele><time>2026-04-05T15:48:23Z</time></trkpt><trkpt lat="43.911409909491226" lon="4.537892599957884"><ele>108.33333333333333</ele><time>2026-04-05T15:48:24Z</time></trkpt><trkpt lat="43.91143655562912" lon="4.5377617431131965"><ele>108.0</ele><time>2026-04-05T15:48:25Z</time></trkpt><trkpt lat="43.91145638241024" lon="4.537636432437502"><ele>108.0</ele><time>2026-04-05T15:48:26Z</time></trkpt><trkpt lat="43.91147344398984" lon="4.537521329504597"><ele>108.0</ele><time>2026-04-05T15:48:27Z</time></trkpt><trkpt lat="43.91149627137627" lon="4.5374082783679714"><ele>108.0</ele><time>2026-04-05T15:48:28Z</time></trkpt><trkpt lat="43.91151817913583" lon="4.537301797566658"><ele>108.0</ele><time>2026-04-05T15:48:29Z</time></trkpt><trkpt lat="43.91153618424904" lon="4.537206836462652"><ele>108.0</ele><time>2026-04-05T15:48:30Z</time></trkpt><trkpt lat="43.911542333191655" lon="4.537112817613809"><ele>108.0</ele><time>2026-04-05T15:48:31Z</time></trkpt><trkpt lat="43.91156460232633" lon="4.536951065289663"><ele>108.0</ele><time>2026-04-05T15:48:33Z</time></trkpt><trkpt lat="43.91157739382065" lon="4.536858268057373"><ele>108.00000000000001</ele><time>2026-04-05T15:48:34Z</time></trkpt><trkpt lat="43.91158129671072" lon="4.536760100617486"><ele>108.00000000000001</ele><time>2026-04-05T15:48:35Z</time></trkpt><trkpt lat="43.911605147164835" lon="4.5365871926111785"><ele>108.0</ele><time>2026-04-05T15:48:37Z</time></trkpt><trkpt lat="43.911628384740574" lon="4.536414730413023"><ele>108.0</ele><time>2026-04-05T15:48:39Z</time></trkpt><trkpt lat="43.9116364612429" lon="4.536304186096355"><ele>108.2</ele><time>2026-04-05T15:48:42Z</time></trkpt><trkpt lat="43.9116520987229" lon="4.536168320706594"><ele>108.4</ele><time>2026-04-05T15:49:00Z</time></trkpt><trkpt lat="43.91167112470573" lon="4.536029008412955"><ele>108.60000000000001</ele><time>2026-04-05T15:49:02Z</time></trkpt><trkpt lat="43.91166490348553" lon="4.5359205804612355"><ele>108.80000000000001</ele><time>2026-04-05T15:49:04Z</time></trkpt><trkpt lat="43.91164522605931" lon="4.535798740241348"><ele>109.0</ele><time>2026-04-05T15:49:06Z</time></trkpt><trkpt lat="43.91161005361844" lon="4.53566951868034"><ele>109.0</ele><time>2026-04-05T15:49:08Z</time></trkpt><trkpt lat="43.911609791742535" lon="4.535535227915886"><ele>109.0</ele><time>2026-04-05T15:49:10Z</time></trkpt><trkpt lat="43.91164495911606" lon="4.5353962816312166"><ele>109.0</ele><time>2026-04-05T15:49:12Z</time></trkpt><trkpt lat="43.9116623989398" lon="4.535246847706145"><ele>109.0</ele><time>2026-04-05T15:49:14Z</time></trkpt><trkpt lat="43.911711607658376" lon="4.53517715363949"><ele>109.0</ele><time>2026-04-05T15:49:17Z</time></trkpt><trkpt lat="43.91176876652207" lon="4.535112171378825"><ele>108.71428571428572</ele><time>2026-04-05T15:49:20Z</time></trkpt><trkpt lat="43.91182120948133" lon="4.535063360954595"><ele>108.42857142857143</ele><time>2026-04-05T15:49:36.999Z</time></trkpt><trkpt lat="43.91188627287532" lon="4.535053877032892"><ele>108.14285714285714</ele><time>2026-04-05T15:49:41.999Z</time></trkpt><trkpt lat="43.91195072323728" lon="4.5350175305104985"><ele>107.85714285714286</ele><time>2026-04-05T15:49:54.999Z</time></trkpt><trkpt lat="43.91201742011631" lon="4.535003455887843"><ele>107.57142857142857</ele><time>2026-04-05T15:49:57.999Z</time></trkpt><trkpt lat="43.91208861271987" lon="4.535030573637393"><ele>107.28571428571429</ele><time>2026-04-05T15:50:00.999Z</time></trkpt><trkpt lat="43.9121637540211" lon="4.535043088183009"><ele>107.0</ele><time>2026-04-05T15:50:02.999Z</time></trkpt><trkpt lat="43.91224599928931" lon="4.534955683428644"><ele>106.99999999999999</ele><time>2026-04-05T15:50:04.999Z</time></trkpt><trkpt lat="43.9122923640947" lon="4.5348242999225565"><ele>107.0</ele><time>2026-04-05T15:50:06.999Z</time></trkpt><trkpt lat="43.912381013965664" lon="4.534779284424672"><ele>107.0</ele><time>2026-04-05T15:50:08.999Z</time></trkpt><trkpt lat="43.91244769393631" lon="4.534801791876591"><ele>107.0</ele><time>2026-04-05T15:50:11.999Z</time></trkpt><trkpt lat="43.91249769219911" lon="4.534708968630365"><ele>106.99999999999999</ele><time>2026-04-05T15:50:14.999Z</time></trkpt><trkpt lat="43.91247324908997" lon="4.534592751936362"><ele>107.0</ele><time>2026-04-05T15:50:16.999Z</time></trkpt><trkpt lat="43.91247614617361" lon="4.534466316038021"><ele>106.19999999999999</ele><time>2026-04-05T15:50:18.999Z</time></trkpt><trkpt lat="43.91243996643342" lon="4.534307295912191"><ele>105.39999999999999</ele><time>2026-04-05T15:50:21Z</time></trkpt><trkpt lat="43.91244845928321" lon="4.534179607412759"><ele>104.6</ele><time>2026-04-05T15:50:23Z</time></trkpt><trkpt lat="43.912457536155515" lon="4.534020342308775"><ele>103.80000000000001</ele><time>2026-04-05T15:50:25Z</time></trkpt><trkpt lat="43.9124392001409" lon="4.533933384941276"><ele>103.0</ele><time>2026-04-05T15:50:26Z</time></trkpt><trkpt lat="43.91246700531976" lon="4.533784776474517"><ele>101.60000000000001</ele><time>2026-04-05T15:50:28Z</time></trkpt><trkpt lat="43.91251568849718" lon="4.533644830211715"><ele>100.2</ele><time>2026-04-05T15:50:30Z</time></trkpt><trkpt lat="43.912556399201804" lon="4.5335145983738245"><ele>98.8</ele><time>2026-04-05T15:50:32Z</time></trkpt><trkpt lat="43.91260198413851" lon="4.533367288495105"><ele>97.4</ele><time>2026-04-05T15:50:34Z</time></trkpt><trkpt lat="43.912646554968056" lon="4.533241695735176"><ele>96.0</ele><time>2026-04-05T15:50:36Z</time></trkpt><trkpt lat="43.91264531274896" lon="4.533153270390659"><ele>95.8</ele><time>2026-04-05T15:50:37Z</time></trkpt><trkpt lat="43.91263611228177" lon="4.533053395862567"><ele>95.6</ele><time>2026-04-05T15:50:38Z</time></trkpt><trkpt lat="43.91262662734919" lon="4.532965139185909"><ele>95.4</ele><time>2026-04-05T15:50:39Z</time></trkpt><trkpt lat="43.91263276056308" lon="4.532828168383292"><ele>95.2</ele><time>2026-04-05T15:50:41Z</time></trkpt><trkpt lat="43.91265031193481" lon="4.532689824863735"><ele>95.0</ele><time>2026-04-05T15:50:43Z</time></trkpt><trkpt lat="43.91262288180434" lon="4.532534032122488"><ele>95.8</ele><time>2026-04-05T15:50:45Z</time></trkpt><trkpt lat="43.91260774990012" lon="4.532443416575896"><ele>96.6</ele><time>2026-04-05T15:50:46Z</time></trkpt><trkpt lat="43.91260121532506" lon="4.532345630211816"><ele>97.4</ele><time>2026-04-05T15:50:47Z</time></trkpt><trkpt lat="43.9126100555189" lon="4.532191234639449"><ele>98.2</ele><time>2026-04-05T15:50:49Z</time></trkpt><trkpt lat="43.91264527568813" lon="4.532076420836352"><ele>99.0</ele><time>2026-04-05T15:50:51Z</time></trkpt><trkpt lat="43.91267961385845" lon="4.531921894154833"><ele>99.0</ele><time>2026-04-05T15:50:53Z</time></trkpt><trkpt lat="43.9127366556317" lon="4.531870571618434"><ele>99.0</ele><time>2026-04-05T15:51:34.999Z</time></trkpt><trkpt lat="43.912793252852715" lon="4.531922562739845"><ele>99.0</ele><time>2026-04-05T15:51:36.999Z</time></trkpt><trkpt lat="43.912833472039146" lon="4.532006627914025"><ele>99.0</ele><time>2026-04-05T15:51:38.999Z</time></trkpt><trkpt lat="43.91289626449587" lon="4.532083941016774"><ele>99.0</ele><time>2026-04-05T15:51:40.999Z</time></trkpt><trkpt lat="43.913003486996786" lon="4.532046204533583"><ele>99.0</ele><time>2026-04-05T15:51:42.999Z</time></trkpt><trkpt lat="43.91305950175981" lon="4.531986271461852"><ele>99.2</ele><time>2026-04-05T15:51:43.999Z</time></trkpt><trkpt lat="43.913115215339126" lon="4.531924968709723"><ele>99.4</ele><time>2026-04-05T15:51:44.999Z</time></trkpt><trkpt lat="43.91321657341088" lon="4.531858313099163"><ele>99.6</ele><time>2026-04-05T15:51:46.999Z</time></trkpt><trkpt lat="43.913287334663366" lon="4.531879954044693"><ele>99.8</ele><time>2026-04-05T15:51:48.999Z</time></trkpt><trkpt lat="43.91340971411064" lon="4.5319506898973625"><ele>100.0</ele><time>2026-04-05T15:51:50.999Z</time></trkpt><trkpt lat="43.91347189220728" lon="4.532016862058289"><ele>99.42857142857143</ele><time>2026-04-05T15:51:51.999Z</time></trkpt><trkpt lat="43.91353391253358" lon="4.5320730775057925"><ele>98.85714285714286</ele><time>2026-04-05T15:51:52.999Z</time></trkpt><trkpt lat="43.91363015023765" lon="4.532041792610554"><ele>98.28571428571428</ele><time>2026-04-05T15:51:54.999Z</time></trkpt><trkpt lat="43.913684174948905" lon="4.531989491042924"><ele>97.71428571428572</ele><time>2026-04-05T15:51:55.999Z</time></trkpt><trkpt lat="43.91374986787762" lon="4.531949447659583"><ele>97.14285714285714</ele><time>2026-04-05T15:51:56.999Z</time></trkpt><trkpt lat="43.913814980734756" lon="4.531919483855696"><ele>96.57142857142857</ele><time>2026-04-05T15:51:57.999Z</time></trkpt><trkpt lat="43.913879476460366" lon="4.531905489283774"><ele>96.0</ele><time>2026-04-05T15:51:58.999Z</time></trkpt><trkpt lat="43.91394341205858" lon="4.531903983280422"><ele>96.0</ele><time>2026-04-05T15:51:59.999Z</time></trkpt><trkpt lat="43.91406108203129" lon="4.531926247586937"><ele>96.0</ele><time>2026-04-05T15:52:01.999Z</time></trkpt><trkpt lat="43.91417991463364" lon="4.531908237800076"><ele>96.0</ele><time>2026-04-05T15:52:03.999Z</time></trkpt><trkpt lat="43.914264153937246" lon="4.531882098734106"><ele>96.0</ele><time>2026-04-05T15:52:05.999Z</time></trkpt><trkpt lat="43.91436120610896" lon="4.531890461299275"><ele>96.0</ele><time>2026-04-05T15:52:07.999Z</time></trkpt><trkpt lat="43.91444676109202" lon="4.5318252690114385"><ele>95.5</ele><time>2026-04-05T15:52:09.999Z</time></trkpt><trkpt lat="43.914525199432504" lon="4.531756180039849"><ele>95.0</ele><time>2026-04-05T15:52:11.999Z</time></trkpt><trkpt lat="43.914573983804225" lon="4.531812263670628"><ele>94.5</ele><time>2026-04-05T15:52:13.999Z</time></trkpt><trkpt lat="43.914648006573444" lon="4.531840388726841"><ele>94.0</ele><time>2026-04-05T15:52:15.999Z</time></trkpt><trkpt lat="43.9147522727175" lon="4.531810860041457"><ele>93.5</ele><time>2026-04-05T15:52:17.999Z</time></trkpt><trkpt lat="43.914822648363725" lon="4.531810752224398"><ele>93.0</ele><time>2026-04-05T15:52:18.999Z</time></trkpt><trkpt lat="43.91488806609918" lon="4.531825553690378"><ele>93.0</ele><time>2026-04-05T15:52:19.999Z</time></trkpt><trkpt lat="43.91498524975564" lon="4.531784730834695"><ele>93.0</ele><time>2026-04-05T15:52:21.999Z</time></trkpt><trkpt lat="43.91508395093565" lon="4.531810206914781"><ele>93.0</ele><time>2026-04-05T15:52:23.999Z</time></trkpt><trkpt lat="43.915186445499415" lon="4.531874766929524"><ele>93.0</ele><time>2026-04-05T15:52:25.999Z</time></trkpt><trkpt lat="43.915256224116675" lon="4.531892636996585"><ele>93.0</ele><time>2026-04-05T15:52:27Z</time></trkpt><trkpt lat="43.91533039299391" lon="4.531933887049135"><ele>92.16666666666667</ele><time>2026-04-05T15:52:28Z</time></trkpt><trkpt lat="43.915404655665874" lon="4.531988540009181"><ele>91.33333333333333</ele><time>2026-04-05T15:52:29Z</time></trkpt><trkpt lat="43.91548577467836" lon="4.532033642248047"><ele>90.5</ele><time>2026-04-05T15:52:30Z</time></trkpt><trkpt lat="43.915560256544765" lon="4.53207587943869"><ele>89.66666666666666</ele><time>2026-04-05T15:52:31Z</time></trkpt><trkpt lat="43.91563763389717" lon="4.532098580932783"><ele>88.83333333333333</ele><time>2026-04-05T15:52:32Z</time></trkpt><trkpt lat="43.915722033350534" lon="4.532113292816671"><ele>88.0</ele><time>2026-04-05T15:52:33Z</time></trkpt><trkpt lat="43.91579989956368" lon="4.532133751120839"><ele>88.0</ele><time>2026-04-05T15:52:34Z</time></trkpt><trkpt lat="43.91586941191352" lon="4.5321454475036695"><ele>88.0</ele><time>2026-04-05T15:52:35Z</time></trkpt><trkpt lat="43.91595504130487" lon="4.532099359567254"><ele>88.0</ele><time>2026-04-05T15:52:37Z</time></trkpt><trkpt lat="43.91604858475201" lon="4.53209803944974"><ele>88.0</ele><time>2026-04-05T15:52:39Z</time></trkpt><trkpt lat="43.91610411303777" lon="4.532140074412082"><ele>88.0</ele><time>2026-04-05T15:52:40Z</time></trkpt><trkpt lat="43.91616264980587" lon="4.532176701116337"><ele>88.0</ele><time>2026-04-05T15:52:41Z</time></trkpt><trkpt lat="43.916227373920734" lon="4.5321748649164215"><ele>88.0</ele><time>2026-04-05T15:52:42Z</time></trkpt><trkpt lat="43.91628954439461" lon="4.532146159175763"><ele>87.66666666666666</ele><time>2026-04-05T15:52:43Z</time></trkpt><trkpt lat="43.91635798228572" lon="4.532126222173844"><ele>87.33333333333333</ele><time>2026-04-05T15:52:44Z</time></trkpt><trkpt lat="43.91647671870673" lon="4.532194737282581"><ele>87.0</ele><time>2026-04-05T15:52:46Z</time></trkpt><trkpt lat="43.91654459699219" lon="4.5321864151333395"><ele>86.66666666666667</ele><time>2026-04-05T15:52:47Z</time></trkpt><trkpt lat="43.91660791296064" lon="4.532189629148574"><ele>86.33333333333334</ele><time>2026-04-05T15:52:48Z</time></trkpt><trkpt lat="43.91667719916291" lon="4.5322752941217574"><ele>86.0</ele><time>2026-04-05T15:52:50Z</time></trkpt><trkpt lat="43.916758542900766" lon="4.532330911426771"><ele>85.0</ele><time>2026-04-05T15:52:52Z</time></trkpt><trkpt lat="43.91686016612571" lon="4.532310317188759"><ele>84.0</ele><time>2026-04-05T15:52:54Z</time></trkpt><trkpt lat="43.91693700815838" lon="4.532323341486055"><ele>83.0</ele><time>2026-04-05T15:52:55Z</time></trkpt><trkpt lat="43.91700447071398" lon="4.532326781883233"><ele>82.0</ele><time>2026-04-05T15:52:56Z</time></trkpt><trkpt lat="43.91710152993286" lon="4.532315622844345"><ele>81.0</ele><time>2026-04-05T15:52:58Z</time></trkpt><trkpt lat="43.917170399551935" lon="4.532271725849733"><ele>80.0</ele><time>2026-04-05T15:53:00Z</time></trkpt><trkpt lat="43.91725270820728" lon="4.532251520344013"><ele>80.0</ele><time>2026-04-05T15:53:04Z</time></trkpt><trkpt lat="43.91732463904718" lon="4.532277695624148"><ele>80.0</ele><time>2026-04-05T15:53:06Z</time></trkpt><trkpt lat="43.91740753903294" lon="4.532291327360617"><ele>80.0</ele><time>2026-04-05T15:53:09Z</time></trkpt><trkpt lat="43.91748661629271" lon="4.532307534994407"><ele>80.0</ele><time>2026-04-05T15:53:13Z</time></trkpt><trkpt lat="43.91756232300383" lon="4.532282355361102"><ele>80.0</ele><time>2026-04-05T15:53:21Z</time></trkpt><trkpt lat="43.91761364830069" lon="4.532223455736722"><ele>80.0</ele><time>2026-04-05T15:53:23Z</time></trkpt><trkpt lat="43.917664984464835" lon="4.53216049602049"><ele>78.83333333333334</ele><time>2026-04-05T15:53:25Z</time></trkpt><trkpt lat="43.917725755085954" lon="4.532068214855707"><ele>77.66666666666667</ele><time>2026-04-05T15:53:36.999Z</time></trkpt><trkpt lat="43.91771779072854" lon="4.531972628088183"><ele>76.5</ele><time>2026-04-05T15:53:39.999Z</time></trkpt><trkpt lat="43.9177233204566" lon="4.531870875472476"><ele>75.33333333333333</ele><time>2026-04-05T15:54:06.999Z</time></trkpt><trkpt lat="43.91776158172273" lon="4.5317850514517595"><ele>74.16666666666666</ele><time>2026-04-05T15:54:08.999Z</time></trkpt><trkpt lat="43.9178257899973" lon="4.5317262336169835"><ele>73.0</ele><time>2026-04-05T15:54:11.999Z</time></trkpt><trkpt lat="43.91788858689202" lon="4.53168656291244"><ele>73.0</ele><time>2026-04-05T15:54:14.999Z</time></trkpt><trkpt lat="43.917938475678866" lon="4.531621748464905"><ele>73.0</ele><time>2026-04-05T15:54:16.999Z</time></trkpt><trkpt lat="43.91795011049094" lon="4.531524124644959"><ele>73.0</ele><time>2026-04-05T15:54:19.999Z</time></trkpt><trkpt lat="43.917909944131736" lon="4.531401534034835"><ele>73.0</ele><time>2026-04-05T15:54:25.999Z</time></trkpt><trkpt lat="43.91784786647355" lon="4.531287598623016"><ele>73.0</ele><time>2026-04-05T15:54:27.999Z</time></trkpt><trkpt lat="43.91786458411371" lon="4.531168723246154"><ele>73.0</ele><time>2026-04-05T15:54:29.999Z</time></trkpt><trkpt lat="43.91781436772346" lon="4.531038159558554"><ele>72.8</ele><time>2026-04-05T15:54:31.999Z</time></trkpt><trkpt lat="43.91775877903635" lon="4.530910422320172"><ele>72.6</ele><time>2026-04-05T15:54:34Z</time></trkpt><trkpt lat="43.917690238239764" lon="4.530822920927026"><ele>72.4</ele><time>2026-04-05T15:54:36Z</time></trkpt><trkpt lat="43.917706601448145" lon="4.530716424321892"><ele>72.2</ele><time>2026-04-05T15:54:38Z</time></trkpt><trkpt lat="43.917704599411955" lon="4.530551430028258"><ele>72.0</ele><time>2026-04-05T15:54:40Z</time></trkpt><trkpt lat="43.91780215570132" lon="4.530518511018666"><ele>72.0</ele><time>2026-04-05T15:54:43Z</time></trkpt><trkpt lat="43.917887624710005" lon="4.53047153871575"><ele>72.0</ele><time>2026-04-05T15:54:46Z</time></trkpt><trkpt lat="43.91796972252388" lon="4.530458226407702"><ele>72.0</ele><time>2026-04-05T15:54:49Z</time></trkpt><trkpt lat="43.91803850806832" lon="4.53047298632593"><ele>72.0</ele><time>2026-04-05T15:54:51Z</time></trkpt><trkpt lat="43.918094147110274" lon="4.530391384575713"><ele>72.0</ele><time>2026-04-05T15:55:16Z</time></trkpt><trkpt lat="43.91807170311118" lon="4.530275049927568"><ele>72.0</ele><time>2026-04-05T15:55:18Z</time></trkpt><trkpt lat="43.918035381938715" lon="4.530106888070512"><ele>72.2</ele><time>2026-04-05T15:55:20Z</time></trkpt><trkpt lat="43.918041359129376" lon="4.5300171151601765"><ele>72.4</ele><time>2026-04-05T15:55:21Z</time></trkpt><trkpt lat="43.918031049545775" lon="4.529854464929404"><ele>72.6</ele><time>2026-04-05T15:55:23Z</time></trkpt><trkpt lat="43.918010969532624" lon="4.529707049856037"><ele>72.8</ele><time>2026-04-05T15:55:25Z</time></trkpt><trkpt lat="43.9179857219225" lon="4.52959654247159"><ele>73.0</ele><time>2026-04-05T15:56:00.999Z</time></trkpt><trkpt lat="43.917931625627276" lon="4.52947025849334"><ele>73.6</ele><time>2026-04-05T15:56:02.999Z</time></trkpt><trkpt lat="43.91789025940783" lon="4.529394312434297"><ele>74.19999999999999</ele><time>2026-04-05T15:56:03.999Z</time></trkpt><trkpt lat="43.917818947245856" lon="4.529304977041684"><ele>74.8</ele><time>2026-04-05T15:56:05.999Z</time></trkpt><trkpt lat="43.91775934789134" lon="4.529218267261832"><ele>75.39999999999999</ele><time>2026-04-05T15:56:07.999Z</time></trkpt><trkpt lat="43.91768367869798" lon="4.5291272538234395"><ele>76.0</ele><time>2026-04-05T15:56:09.999Z</time></trkpt><trkpt lat="43.91759756980889" lon="4.529015282447974"><ele>76.33333333333333</ele><time>2026-04-05T15:56:11.999Z</time></trkpt><trkpt lat="43.91755460776024" lon="4.528947510071061"><ele>76.66666666666666</ele><time>2026-04-05T15:56:12.999Z</time></trkpt><trkpt lat="43.91750861931281" lon="4.528876515697962"><ele>77.0</ele><time>2026-04-05T15:56:13.999Z</time></trkpt><trkpt lat="43.917473822656014" lon="4.528798218262923"><ele>77.33333333333333</ele><time>2026-04-05T15:56:14.999Z</time></trkpt><trkpt lat="43.917391121812564" lon="4.528695198692408"><ele>77.66666666666667</ele><time>2026-04-05T15:56:16.999Z</time></trkpt><trkpt lat="43.91736022167222" lon="4.528575579783186"><ele>78.0</ele><time>2026-04-05T15:56:18.999Z</time></trkpt><trkpt lat="43.9173175712483" lon="4.528457377994805"><ele>78.33333333333333</ele><time>2026-04-05T15:56:20.999Z</time></trkpt><trkpt lat="43.91720928881243" lon="4.52841744711459"><ele>78.66666666666667</ele><time>2026-04-05T15:56:22.999Z</time></trkpt><trkpt lat="43.91715193540227" lon="4.528351490342633"><ele>79.0</ele><time>2026-04-05T15:56:23.999Z</time></trkpt><trkpt lat="43.917063978035564" lon="4.528314927914564"><ele>79.33333333333334</ele><time>2026-04-05T15:56:25.999Z</time></trkpt><trkpt lat="43.91698533231693" lon="4.5282523041353695"><ele>79.66666666666667</ele><time>2026-04-05T15:56:27.999Z</time></trkpt><trkpt lat="43.91691356447182" lon="4.528264356795569"><ele>80.0</ele><time>2026-04-05T15:56:29.999Z</time></trkpt><trkpt lat="43.916833222082005" lon="4.528233180791268"><ele>80.0</ele><time>2026-04-05T15:56:31.999Z</time></trkpt><trkpt lat="43.91678285891266" lon="4.528109533592446"><ele>80.0</ele><time>2026-04-05T15:56:33.999Z</time></trkpt><trkpt lat="43.91672127803254" lon="4.5280366982677585"><ele>80.0</ele><time>2026-04-05T15:56:36.999Z</time></trkpt><trkpt lat="43.9167205487958" lon="4.527893223465542"><ele>80.0</ele><time>2026-04-05T15:56:39Z</time></trkpt><trkpt lat="43.916709220755976" lon="4.5277945015304955"><ele>80.0</ele><time>2026-04-05T15:56:40Z</time></trkpt><trkpt lat="43.91667150393896" lon="4.527671260053333"><ele>80.6</ele><time>2026-04-05T15:56:42Z</time></trkpt><trkpt lat="43.916654112651806" lon="4.527551178187206"><ele>81.2</ele><time>2026-04-05T15:56:44Z</time></trkpt><trkpt lat="43.91660974003311" lon="4.527429988590514"><ele>81.80000000000001</ele><time>2026-04-05T15:56:46Z</time></trkpt><trkpt lat="43.91652291616245" lon="4.527320825235671"><ele>82.4</ele><time>2026-04-05T15:56:48Z</time></trkpt><trkpt lat="43.91643064065821" lon="4.52725366382382"><ele>83.0</ele><time>2026-04-05T15:56:50Z</time></trkpt><trkpt lat="43.916380041643144" lon="4.527149854951048"><ele>83.4</ele><time>2026-04-05T15:56:52Z</time></trkpt><trkpt lat="43.91632633236456" lon="4.5270356951243835"><ele>83.80000000000001</ele><time>2026-04-05T15:56:54Z</time></trkpt><trkpt lat="43.916271036861914" lon="4.526919625327916"><ele>84.2</ele><time>2026-04-05T15:56:56Z</time></trkpt><trkpt lat="43.91622919635522" lon="4.526840983540778"><ele>84.6</ele><time>2026-04-05T15:56:57Z</time></trkpt><trkpt lat="43.91624975302212" lon="4.5266749399235175"><ele>85.0</ele><time>2026-04-05T15:56:59Z</time></trkpt><trkpt lat="43.91625992126186" lon="4.526536828558828"><ele>85.0</ele><time>2026-04-05T15:57:01Z</time></trkpt><trkpt lat="43.91632422021" lon="4.5264124744281675"><ele>85.0</ele><time>2026-04-05T15:57:03Z</time></trkpt><trkpt lat="43.91637127930103" lon="4.526352360484345"><ele>85.0</ele><time>2026-04-05T15:57:04Z</time></trkpt><trkpt lat="43.91639707372089" lon="4.526186893942522"><ele>85.0</ele><time>2026-04-05T15:57:06Z</time></trkpt><trkpt lat="43.91646279615238" lon="4.526068906045145"><ele>85.0</ele><time>2026-04-05T15:57:08Z</time></trkpt><trkpt lat="43.91656399047155" lon="4.526018448848137"><ele>85.33333333333333</ele><time>2026-04-05T15:57:10Z</time></trkpt><trkpt lat="43.91664220773147" lon="4.526020196396266"><ele>85.66666666666666</ele><time>2026-04-05T15:57:11Z</time></trkpt><trkpt lat="43.91671294485712" lon="4.526038991565382"><ele>86.0</ele><time>2026-04-05T15:57:12Z</time></trkpt><trkpt lat="43.91678177618529" lon="4.5260502427413645"><ele>86.33333333333333</ele><time>2026-04-05T15:57:13Z</time></trkpt><trkpt lat="43.91689819427781" lon="4.526047406838234"><ele>86.66666666666667</ele><time>2026-04-05T15:57:15Z</time></trkpt><trkpt lat="43.91691568741412" lon="4.525962206517704"><ele>87.0</ele><time>2026-04-05T15:57:17Z</time></trkpt><trkpt lat="43.91690964867809" lon="4.5258656740929455"><ele>87.83333333333333</ele><time>2026-04-05T15:57:21Z</time></trkpt><trkpt lat="43.91697152958009" lon="4.525906216904667"><ele>88.66666666666667</ele><time>2026-04-05T15:58:00.999Z</time></trkpt><trkpt lat="43.917028811067304" lon="4.52596810536631"><ele>89.5</ele><time>2026-04-05T15:58:03.999Z</time></trkpt><trkpt lat="43.917085472502386" lon="4.526022384413358"><ele>90.33333333333334</ele><time>2026-04-05T15:58:05.999Z</time></trkpt><trkpt lat="43.91715562893642" lon="4.52608774137765"><ele>91.16666666666667</ele><time>2026-04-05T15:58:07.999Z</time></trkpt><trkpt lat="43.91724538220121" lon="4.5260925057039705"><ele>92.0</ele><time>2026-04-05T15:58:09.999Z</time></trkpt><trkpt lat="43.91728626362127" lon="4.526185857130235"><ele>91.71428571428572</ele><time>2026-04-05T15:58:11.999Z</time></trkpt><trkpt lat="43.91726711797246" lon="4.526279603970446"><ele>91.42857142857142</ele><time>2026-04-05T15:58:12.999Z</time></trkpt><trkpt lat="43.91727047983794" lon="4.526370674958761"><ele>91.14285714285714</ele><time>2026-04-05T15:58:13.999Z</time></trkpt><trkpt lat="43.91729573003278" lon="4.52646924582596"><ele>90.85714285714286</ele><time>2026-04-05T15:58:14.999Z</time></trkpt><trkpt lat="43.91732549805902" lon="4.526570956394466"><ele>90.57142857142858</ele><time>2026-04-05T15:58:15.999Z</time></trkpt><trkpt lat="43.91736396811153" lon="4.5266660306147575"><ele>90.28571428571428</ele><time>2026-04-05T15:58:16.999Z</time></trkpt><trkpt lat="43.917387394850735" lon="4.52675620712473"><ele>90.0</ele><time>2026-04-05T15:58:17.999Z</time></trkpt><trkpt lat="43.91743898095404" lon="4.52690836019158"><ele>90.0</ele><time>2026-04-05T15:58:19.999Z</time></trkpt><trkpt lat="43.91749371617976" lon="4.527011609901733"><ele>90.0</ele><time>2026-04-05T15:58:21.999Z</time></trkpt><trkpt lat="43.91759994862273" lon="4.527046554589656"><ele>90.0</ele><time>2026-04-05T15:58:23.999Z</time></trkpt><trkpt lat="43.91770082946848" lon="4.526967081288425"><ele>90.0</ele><time>2026-04-05T15:58:25.999Z</time></trkpt><trkpt lat="43.917822408131265" lon="4.526967347074219"><ele>90.0</ele><time>2026-04-05T15:58:27.999Z</time></trkpt><trkpt lat="43.917909461324214" lon="4.527016530522121"><ele>91.2</ele><time>2026-04-05T15:58:29.999Z</time></trkpt><trkpt lat="43.917996050724824" lon="4.5269720860971905"><ele>92.4</ele><time>2026-04-05T15:58:31.999Z</time></trkpt><trkpt lat="43.918089452307726" lon="4.526932981633266"><ele>93.6</ele><time>2026-04-05T15:58:33.999Z</time></trkpt><trkpt lat="43.918179723219325" lon="4.526915286091832"><ele>94.8</ele><time>2026-04-05T15:58:35.999Z</time></trkpt><trkpt lat="43.91830909941335" lon="4.526960722095617"><ele>96.0</ele><time>2026-04-05T15:58:37.999Z</time></trkpt><trkpt lat="43.918381913443746" lon="4.526985224676488"><ele>95.8</ele><time>2026-04-05T15:58:38.999Z</time></trkpt><trkpt lat="43.918452177403736" lon="4.52701526519557"><ele>95.6</ele><time>2026-04-05T15:58:39.999Z</time></trkpt><trkpt lat="43.918572360939095" lon="4.5270784852187935"><ele>95.4</ele><time>2026-04-05T15:58:41.999Z</time></trkpt><trkpt lat="43.91865443701015" lon="4.52708616484865"><ele>95.2</ele><time>2026-04-05T15:58:42.999Z</time></trkpt><trkpt lat="43.91874866089125" lon="4.527093185082949"><ele>95.0</ele><time>2026-04-05T15:58:43.999Z</time></trkpt><trkpt lat="43.91884674827234" lon="4.5270962296261965"><ele>95.0</ele><time>2026-04-05T15:58:45Z</time></trkpt><trkpt lat="43.918943087255194" lon="4.527099589181749"><ele>95.0</ele><time>2026-04-05T15:58:46Z</time></trkpt><trkpt lat="43.91902876710846" lon="4.52710122269379"><ele>95.0</ele><time>2026-04-05T15:58:47Z</time></trkpt><trkpt lat="43.919127083617596" lon="4.527121720691115"><ele>95.0</ele><time>2026-04-05T15:58:49Z</time></trkpt><trkpt lat="43.91922709223279" lon="4.527127522669073"><ele>95.0</ele><time>2026-04-05T15:58:52Z</time></trkpt><trkpt lat="43.919348305068674" lon="4.527098254055507"><ele>95.8</ele><time>2026-04-05T15:58:54Z</time></trkpt><trkpt lat="43.91941507633022" lon="4.527086259935537"><ele>96.6</ele><time>2026-04-05T15:58:55Z</time></trkpt><trkpt lat="43.91952840068815" lon="4.526993619317119"><ele>97.4</ele><time>2026-04-05T15:58:57Z</time></trkpt><trkpt lat="43.919580930023386" lon="4.526895115044243"><ele>98.2</ele><time>2026-04-05T15:58:58Z</time></trkpt><trkpt lat="43.91963611634137" lon="4.5267687427777945"><ele>99.0</ele><time>2026-04-05T15:58:59Z</time></trkpt><trkpt lat="43.91969865884857" lon="4.526645300140643"><ele>99.25</ele><time>2026-04-05T15:59:00Z</time></trkpt><trkpt lat="43.91976487906031" lon="4.526496238477791"><ele>99.5</ele><time>2026-04-05T15:59:01Z</time></trkpt><trkpt lat="43.919827175623084" lon="4.526334199206939"><ele>99.75</ele><time>2026-04-05T15:59:02Z</time></trkpt><trkpt lat="43.919885762904755" lon="4.5262101791737415"><ele>100.0</ele><time>2026-04-05T15:59:03Z</time></trkpt><trkpt lat="43.91994395033016" lon="4.526096569593118"><ele>100.6</ele><time>2026-04-05T15:59:04Z</time></trkpt><trkpt lat="43.91999824114758" lon="4.525979184849185"><ele>101.2</ele><time>2026-04-05T15:59:05Z</time></trkpt><trkpt lat="43.92004133597982" lon="4.52587431318599"><ele>101.80000000000001</ele><time>2026-04-05T15:59:06Z</time></trkpt><trkpt lat="43.9200897666521" lon="4.525765742852636"><ele>102.4</ele><time>2026-04-05T15:59:07Z</time></trkpt><trkpt lat="43.92014724212633" lon="4.525660965404451"><ele>103.0</ele><time>2026-04-05T15:59:08Z</time></trkpt><trkpt lat="43.920205795586554" lon="4.525579256459018"><ele>103.16666666666667</ele><time>2026-04-05T15:59:09Z</time></trkpt><trkpt lat="43.92025811538335" lon="4.525499901187851"><ele>103.33333333333334</ele><time>2026-04-05T15:59:10Z</time></trkpt><trkpt lat="43.920301565000784" lon="4.525427638881269"><ele>103.5</ele><time>2026-04-05T15:59:11Z</time></trkpt><trkpt lat="43.920344434710515" lon="4.525340549766899"><ele>103.66666666666666</ele><time>2026-04-05T15:59:12Z</time></trkpt><trkpt lat="43.920374018429044" lon="4.525231563079861"><ele>103.83333333333333</ele><time>2026-04-05T15:59:13Z</time></trkpt><trkpt lat="43.92037483449962" lon="4.525064957086804"><ele>104.0</ele><time>2026-04-05T15:59:15Z</time></trkpt><trkpt lat="43.92038854490938" lon="4.524975002531183"><ele>104.2</ele><time>2026-04-05T15:59:16Z</time></trkpt><trkpt lat="43.920436748847216" lon="4.52489659894532"><ele>104.4</ele><time>2026-04-05T15:59:17Z</time></trkpt><trkpt lat="43.92052030623467" lon="4.52476042586096"><ele>104.6</ele><time>2026-04-05T15:59:19Z</time></trkpt><trkpt lat="43.92054602726141" lon="4.524673013136019"><ele>104.8</ele><time>2026-04-05T15:59:20Z</time></trkpt><trkpt lat="43.920572437954945" lon="4.524555114035352"><ele>105.0</ele><time>2026-04-05T15:59:21Z</time></trkpt><trkpt lat="43.920591982096404" lon="4.5244304072092065"><ele>105.0</ele><time>2026-04-05T15:59:22Z</time></trkpt><trkpt lat="43.92061842189979" lon="4.524321736156424"><ele>105.0</ele><time>2026-04-05T15:59:23Z</time></trkpt><trkpt lat="43.92065972164101" lon="4.524224906852869"><ele>105.0</ele><time>2026-04-05T15:59:24Z</time></trkpt><trkpt lat="43.920702918860954" lon="4.52413477089872"><ele>105.0</ele><time>2026-04-05T15:59:25Z</time></trkpt><trkpt lat="43.92074393880046" lon="4.524036282230889"><ele>105.0</ele><time>2026-04-05T15:59:26Z</time></trkpt><trkpt lat="43.920787198726494" lon="4.523935498289363"><ele>105.0</ele><time>2026-04-05T15:59:27Z</time></trkpt><trkpt lat="43.92082651968261" lon="4.523842170113096"><ele>105.0</ele><time>2026-04-05T15:59:28Z</time></trkpt><trkpt lat="43.920874184899695" lon="4.5237359291038395"><ele>105.0</ele><time>2026-04-05T15:59:29Z</time></trkpt><trkpt lat="43.92094510701991" lon="4.523611567522257"><ele>105.0</ele><time>2026-04-05T15:59:30Z</time></trkpt><trkpt lat="43.92102311188178" lon="4.523496275480459"><ele>105.0</ele><time>2026-04-05T15:59:31Z</time></trkpt><trkpt lat="43.921101191154655" lon="4.523380705093319"><ele>105.0</ele><time>2026-04-05T15:59:32Z</time></trkpt><trkpt lat="43.92117003737864" lon="4.5232805653190145"><ele>104.2</ele><time>2026-04-05T15:59:33Z</time></trkpt><trkpt lat="43.92122796439653" lon="4.5231851691452745"><ele>103.4</ele><time>2026-04-05T15:59:34Z</time></trkpt><trkpt lat="43.921290002218996" lon="4.523097075463807"><ele>102.6</ele><time>2026-04-05T15:59:35Z</time></trkpt><trkpt lat="43.921336672932824" lon="4.5229999002531285"><ele>101.8</ele><time>2026-04-05T15:59:36Z</time></trkpt><trkpt lat="43.92137511471444" lon="4.522915808592723"><ele>101.0</ele><time>2026-04-05T15:59:37Z</time></trkpt><trkpt lat="43.92144055389855" lon="4.522768092541566"><ele>100.99999999999999</ele><time>2026-04-05T15:59:39Z</time></trkpt><trkpt lat="43.921453296619326" lon="4.522634306100538"><ele>101.0</ele><time>2026-04-05T15:59:41Z</time></trkpt><trkpt lat="43.921447408368806" lon="4.522528701453845"><ele>101.0</ele><time>2026-04-05T16:00:06.999Z</time></trkpt><trkpt lat="43.92142697651695" lon="4.52242914814276"><ele>101.0</ele><time>2026-04-05T16:00:08.999Z</time></trkpt><trkpt lat="43.92139928178125" lon="4.522284798183701"><ele>100.99999999999999</ele><time>2026-04-05T16:00:10.999Z</time></trkpt><trkpt lat="43.921384258899984" lon="4.522192170475512"><ele>101.0</ele><time>2026-04-05T16:00:11.999Z</time></trkpt><trkpt lat="43.921371484089555" lon="4.522100796279431"><ele>101.8</ele><time>2026-04-05T16:00:12.999Z</time></trkpt><trkpt lat="43.92133497127892" lon="4.521959401335791"><ele>102.6</ele><time>2026-04-05T16:00:14.999Z</time></trkpt><trkpt lat="43.92125563666002" lon="4.521824680374419"><ele>103.4</ele><time>2026-04-05T16:00:16.999Z</time></trkpt><trkpt lat="43.92121003535937" lon="4.521733945358232"><ele>104.2</ele><time>2026-04-05T16:00:17.999Z</time></trkpt><trkpt lat="43.921171808930225" lon="4.521635024015343"><ele>105.0</ele><time>2026-04-05T16:00:18.999Z</time></trkpt><trkpt lat="43.92114208100877" lon="4.521519190565555"><ele>105.0</ele><time>2026-04-05T16:00:19.999Z</time></trkpt><trkpt lat="43.92111786885209" lon="4.521375533054864"><ele>105.0</ele><time>2026-04-05T16:00:20.999Z</time></trkpt><trkpt lat="43.9210879967383" lon="4.5212288041364745"><ele>105.0</ele><time>2026-04-05T16:00:21.999Z</time></trkpt><trkpt lat="43.92105377444708" lon="4.521078930517058"><ele>105.0</ele><time>2026-04-05T16:00:22.999Z</time></trkpt><trkpt lat="43.92101876911677" lon="4.520941813908957"><ele>105.0</ele><time>2026-04-05T16:00:23.999Z</time></trkpt><trkpt lat="43.92097099746046" lon="4.520805010681117"><ele>104.8</ele><time>2026-04-05T16:00:24.999Z</time></trkpt><trkpt lat="43.92091598776999" lon="4.520675470839155"><ele>104.6</ele><time>2026-04-05T16:00:25.999Z</time></trkpt><trkpt lat="43.92085149672176" lon="4.5205693734748715"><ele>104.4</ele><time>2026-04-05T16:00:26.999Z</time></trkpt><trkpt lat="43.92078444899496" lon="4.520478151523138"><ele>104.2</ele><time>2026-04-05T16:00:27.999Z</time></trkpt><trkpt lat="43.92072292988821" lon="4.52039797310118"><ele>104.0</ele><time>2026-04-05T16:00:28.999Z</time></trkpt><trkpt lat="43.920648462373634" lon="4.520293653435783"><ele>105.5</ele><time>2026-04-05T16:00:30.999Z</time></trkpt><trkpt lat="43.920610783186625" lon="4.520212885678823"><ele>107.0</ele><time>2026-04-05T16:00:32.999Z</time></trkpt><trkpt lat="43.92056301248458" lon="4.520152498082306"><ele>108.5</ele><time>2026-04-05T16:00:34.999Z</time></trkpt><trkpt lat="43.92046968721875" lon="4.5200771958309796"><ele>110.0</ele><time>2026-04-05T16:00:36.999Z</time></trkpt><trkpt lat="43.92025503506925" lon="4.520330148756239"><ele>109.99999999999999</ele><time>2026-04-05T16:00:37.999Z</time></trkpt><trkpt lat="43.920178533748185" lon="4.520319857467735"><ele>110.0</ele><time>2026-04-05T16:00:39.999Z</time></trkpt><trkpt lat="43.9201238140191" lon="4.520439863232037"><ele>110.0</ele><time>2026-04-05T16:00:41.999Z</time></trkpt><trkpt lat="43.92007439770334" lon="4.520503872876093"><ele>110.0</ele><time>2026-04-05T16:00:42.999Z</time></trkpt><trkpt lat="43.92001838271817" lon="4.5205785388317565"><ele>109.99999999999999</ele><time>2026-04-05T16:00:43.999Z</time></trkpt><trkpt lat="43.91998625948551" lon="4.520673752999157"><ele>110.0</ele><time>2026-04-05T16:00:44.999Z</time></trkpt><trkpt lat="43.91995162642506" lon="4.520759274574134"><ele>108.85714285714285</ele><time>2026-04-05T16:00:45.999Z</time></trkpt><trkpt lat="43.91990504837129" lon="4.520823196202257"><ele>107.71428571428571</ele><time>2026-04-05T16:00:46.999Z</time></trkpt><trkpt lat="43.919843373314386" lon="4.520859034211112"><ele>106.57142857142857</ele><time>2026-04-05T16:00:47.999Z</time></trkpt><trkpt lat="43.91977087358746" lon="4.5208956244926615"><ele>105.42857142857142</ele><time>2026-04-05T16:00:48.999Z</time></trkpt><trkpt lat="43.919684676319505" lon="4.520908765533959"><ele>104.28571428571429</ele><time>2026-04-05T16:00:49.999Z</time></trkpt><trkpt lat="43.91961262558669" lon="4.520896528101215"><ele>103.14285714285714</ele><time>2026-04-05T16:00:51Z</time></trkpt><trkpt lat="43.9195548022071" lon="4.520857793172119"><ele>102.0</ele><time>2026-04-05T16:00:52Z</time></trkpt><trkpt lat="43.919491757172175" lon="4.520804716209835"><ele>102.0</ele><time>2026-04-05T16:00:53Z</time></trkpt><trkpt lat="43.91942615461205" lon="4.520740319580003"><ele>102.0</ele><time>2026-04-05T16:00:54Z</time></trkpt><trkpt lat="43.919361785612836" lon="4.520696012641795"><ele>102.0</ele><time>2026-04-05T16:00:55Z</time></trkpt><trkpt lat="43.91928833855797" lon="4.520694651816274"><ele>102.0</ele><time>2026-04-05T16:00:56Z</time></trkpt><trkpt lat="43.91921009338085" lon="4.52072701672855"><ele>102.0</ele><time>2026-04-05T16:00:57Z</time></trkpt><trkpt lat="43.91912570215046" lon="4.520767192479597"><ele>102.0</ele><time>2026-04-05T16:00:58Z</time></trkpt><trkpt lat="43.91903399298072" lon="4.5208026960497705"><ele>101.6</ele><time>2026-04-05T16:00:59Z</time></trkpt><trkpt lat="43.91894710089882" lon="4.520838364188286"><ele>101.19999999999999</ele><time>2026-04-05T16:01:00Z</time></trkpt><trkpt lat="43.91886839518069" lon="4.520862257340733"><ele>100.8</ele><time>2026-04-05T16:01:01Z</time></trkpt><trkpt lat="43.91878589795193" lon="4.520882942518126"><ele>100.4</ele><time>2026-04-05T16:01:03Z</time></trkpt><trkpt lat="43.91870730641725" lon="4.520786734885943"><ele>100.0</ele><time>2026-04-05T16:01:06Z</time></trkpt><trkpt lat="43.9186188763293" lon="4.520677305951315"><ele>100.00000000000001</ele><time>2026-04-05T16:01:08Z</time></trkpt><trkpt lat="43.91856335138637" lon="4.52063223979172"><ele>100.0</ele><time>2026-04-05T16:01:09Z</time></trkpt><trkpt lat="43.918509529599895" lon="4.5205756942808994"><ele>100.0</ele><time>2026-04-05T16:01:10Z</time></trkpt><trkpt lat="43.9184635172307" lon="4.5205063681939635"><ele>100.0</ele><time>2026-04-05T16:01:11Z</time></trkpt><trkpt lat="43.918411585690954" lon="4.520376060656534"><ele>100.00000000000001</ele><time>2026-04-05T16:01:13Z</time></trkpt><trkpt lat="43.91837318191332" lon="4.520284040650696"><ele>100.0</ele><time>2026-04-05T16:01:15Z</time></trkpt><trkpt lat="43.918343474271374" lon="4.520140912355198"><ele>100.83333333333334</ele><time>2026-04-05T16:01:17Z</time></trkpt><trkpt lat="43.91832311093096" lon="4.5200543814719785"><ele>101.66666666666667</ele><time>2026-04-05T16:01:18Z</time></trkpt><trkpt lat="43.918291471034905" lon="4.519968418289456"><ele>102.5</ele><time>2026-04-05T16:01:19Z</time></trkpt><trkpt lat="43.91825905311913" lon="4.519873212561862"><ele>103.33333333333334</ele><time>2026-04-05T16:01:20Z</time></trkpt><trkpt lat="43.91822759826882" lon="4.519775325597328"><ele>104.16666666666667</ele><time>2026-04-05T16:01:21Z</time></trkpt><trkpt lat="43.918190510614636" lon="4.519671367357716"><ele>105.0</ele><time>2026-04-05T16:01:22Z</time></trkpt><trkpt lat="43.918146157984395" lon="4.519581072312623"><ele>105.6</ele><time>2026-04-05T16:01:23Z</time></trkpt><trkpt lat="43.918087941186634" lon="4.519472015808544"><ele>106.2</ele><time>2026-04-05T16:01:24Z</time></trkpt><trkpt lat="43.91802924810421" lon="4.519362789700919"><ele>106.80000000000001</ele><time>2026-04-05T16:01:25Z</time></trkpt><trkpt lat="43.917974702808166" lon="4.519237359031964"><ele>107.4</ele><time>2026-04-05T16:01:26Z</time></trkpt><trkpt lat="43.91791659799467" lon="4.519118682316257"><ele>108.0</ele><time>2026-04-05T16:01:27Z</time></trkpt><trkpt lat="43.91785203983065" lon="4.518995152628484"><ele>108.0</ele><time>2026-04-05T16:01:28Z</time></trkpt><trkpt lat="43.91779078284738" lon="4.518883722192788"><ele>108.00000000000001</ele><time>2026-04-05T16:01:29Z</time></trkpt><trkpt lat="43.91774036484921" lon="4.518760040570441"><ele>108.00000000000001</ele><time>2026-04-05T16:01:30Z</time></trkpt><trkpt lat="43.9176780954677" lon="4.518638065165515"><ele>108.0</ele><time>2026-04-05T16:01:31Z</time></trkpt><trkpt lat="43.91760313839882" lon="4.518528245244572"><ele>108.0</ele><time>2026-04-05T16:01:32Z</time></trkpt><trkpt lat="43.91752776655068" lon="4.518418631883453"><ele>108.16666666666667</ele><time>2026-04-05T16:01:33Z</time></trkpt><trkpt lat="43.91746733534952" lon="4.518322525328218"><ele>108.33333333333334</ele><time>2026-04-05T16:01:34Z</time></trkpt><trkpt lat="43.91741658904726" lon="4.518231614438693"><ele>108.5</ele><time>2026-04-05T16:01:35Z</time></trkpt><trkpt lat="43.91737415360839" lon="4.5181534206509015"><ele>108.66666666666667</ele><time>2026-04-05T16:01:36Z</time></trkpt><trkpt lat="43.91733258752475" lon="4.518042260786458"><ele>108.83333333333334</ele><time>2026-04-05T16:01:37Z</time></trkpt><trkpt lat="43.917312644934256" lon="4.517927272516102"><ele>109.0</ele><time>2026-04-05T16:01:38Z</time></trkpt><trkpt lat="43.917295117180224" lon="4.51780481315902"><ele>109.6</ele><time>2026-04-05T16:01:39Z</time></trkpt><trkpt lat="43.917269631135056" lon="4.517719569080517"><ele>110.2</ele><time>2026-04-05T16:01:40Z</time></trkpt><trkpt lat="43.91724113111341" lon="4.517611221126946"><ele>110.79999999999998</ele><time>2026-04-05T16:01:41Z</time></trkpt><trkpt lat="43.917207429544604" lon="4.517475896580198"><ele>111.39999999999999</ele><time>2026-04-05T16:01:42Z</time></trkpt><trkpt lat="43.91716330263276" lon="4.517342731842046"><ele>112.0</ele><time>2026-04-05T16:01:43Z</time></trkpt><trkpt lat="43.91711844105899" lon="4.517230739423297"><ele>112.00000000000001</ele><time>2026-04-05T16:01:44Z</time></trkpt><trkpt lat="43.91707772766993" lon="4.517136116845122"><ele>112.0</ele><time>2026-04-05T16:01:45Z</time></trkpt><trkpt lat="43.91704128114246" lon="4.517043106525938"><ele>112.0</ele><time>2026-04-05T16:01:45.999Z</time></trkpt><trkpt lat="43.91701327028797" lon="4.516934199850611"><ele>112.0</ele><time>2026-04-05T16:01:46.999Z</time></trkpt><trkpt lat="43.916996638379345" lon="4.516812915298914"><ele>112.00000000000001</ele><time>2026-04-05T16:01:47.999Z</time></trkpt><trkpt lat="43.91698304746955" lon="4.516697455280899"><ele>112.0</ele><time>2026-04-05T16:01:48.999Z</time></trkpt><trkpt lat="43.916966978726066" lon="4.516579463190926"><ele>112.6</ele><time>2026-04-05T16:01:49.999Z</time></trkpt><trkpt lat="43.91695496857692" lon="4.516453815301959"><ele>113.19999999999999</ele><time>2026-04-05T16:01:50.999Z</time></trkpt><trkpt lat="43.916948979331686" lon="4.51632680719152"><ele>113.8</ele><time>2026-04-05T16:01:51.999Z</time></trkpt><trkpt lat="43.91694175315818" lon="4.516189112772525"><ele>114.4</ele><time>2026-04-05T16:01:52.999Z</time></trkpt><trkpt lat="43.916927573400386" lon="4.516042793598806"><ele>115.0</ele><time>2026-04-05T16:01:53.999Z</time></trkpt><trkpt lat="43.91690864262356" lon="4.5159145005486705"><ele>115.16666666666667</ele><time>2026-04-05T16:01:54.999Z</time></trkpt><trkpt lat="43.916896946831216" lon="4.515810636669103"><ele>115.33333333333334</ele><time>2026-04-05T16:01:55.999Z</time></trkpt><trkpt lat="43.91688271141723" lon="4.515719372698245"><ele>115.5</ele><time>2026-04-05T16:01:56.999Z</time></trkpt><trkpt lat="43.91685854651651" lon="4.51557627831102"><ele>115.66666666666666</ele><time>2026-04-05T16:01:58.999Z</time></trkpt><trkpt lat="43.916791088527674" lon="4.515475998015071"><ele>115.83333333333333</ele><time>2026-04-05T16:02:00.999Z</time></trkpt><trkpt lat="43.91672000807642" lon="4.515408164935428"><ele>116.0</ele><time>2026-04-05T16:02:02.999Z</time></trkpt><trkpt lat="43.916619970866925" lon="4.515544786438726"><ele>116.66666666666666</ele><time>2026-04-05T16:02:04.999Z</time></trkpt><trkpt lat="43.916575746720135" lon="4.515635095930355"><ele>117.33333333333333</ele><time>2026-04-05T16:02:05.999Z</time></trkpt><trkpt lat="43.91651950911212" lon="4.515733282041658"><ele>118.0</ele><time>2026-04-05T16:02:06.999Z</time></trkpt><trkpt lat="43.9164649981496" lon="4.51582407893742"><ele>118.66666666666666</ele><time>2026-04-05T16:02:07.999Z</time></trkpt><trkpt lat="43.91641502174528" lon="4.515908890924782"><ele>119.33333333333333</ele><time>2026-04-05T16:02:08.999Z</time></trkpt><trkpt lat="43.916368290262604" lon="4.5159886678329695"><ele>120.0</ele><time>2026-04-05T16:02:09.999Z</time></trkpt><trkpt lat="43.91631770370675" lon="4.516057695050717"><ele>120.0</ele><time>2026-04-05T16:02:10.999Z</time></trkpt><trkpt lat="43.91624217322024" lon="4.516182646877855"><ele>120.0</ele><time>2026-04-05T16:02:12.999Z</time></trkpt><trkpt lat="43.91619383357387" lon="4.516244709861216"><ele>120.0</ele><time>2026-04-05T16:02:13.999Z</time></trkpt><trkpt lat="43.91614358970099" lon="4.516301216650664"><ele>120.0</ele><time>2026-04-05T16:02:14.999Z</time></trkpt><trkpt lat="43.916045905159685" lon="4.516384817342015"><ele>120.0</ele><time>2026-04-05T16:02:16.999Z</time></trkpt><trkpt lat="43.91594456993374" lon="4.5164335358633325"><ele>120.16666666666667</ele><time>2026-04-05T16:02:18.999Z</time></trkpt><trkpt lat="43.91588067060774" lon="4.5164178452343835"><ele>120.33333333333334</ele><time>2026-04-05T16:02:19.999Z</time></trkpt><trkpt lat="43.91581683907432" lon="4.516375689972019"><ele>120.5</ele><time>2026-04-05T16:02:20.999Z</time></trkpt><trkpt lat="43.91575927158801" lon="4.516304774383476"><ele>120.66666666666667</ele><time>2026-04-05T16:02:21.999Z</time></trkpt><trkpt lat="43.91571241624332" lon="4.5162162185962496"><ele>120.83333333333334</ele><time>2026-04-05T16:02:22.999Z</time></trkpt><trkpt lat="43.915674434808764" lon="4.516102669643236"><ele>121.0</ele><time>2026-04-05T16:02:23.999Z</time></trkpt><trkpt lat="43.91564632404334" lon="4.515998033058076"><ele>121.00000000000001</ele><time>2026-04-05T16:02:24.999Z</time></trkpt><trkpt lat="43.91562452892349" lon="4.51589627304621"><ele>121.0</ele><time>2026-04-05T16:02:25.999Z</time></trkpt><trkpt lat="43.91561705090645" lon="4.5158006835237465"><ele>121.0</ele><time>2026-04-05T16:02:26.999Z</time></trkpt><trkpt lat="43.91560309090176" lon="4.515714377136991"><ele>121.0</ele><time>2026-04-05T16:02:27.999Z</time></trkpt><trkpt lat="43.91557189327222" lon="4.515564009436356"><ele>121.00000000000001</ele><time>2026-04-05T16:02:29.999Z</time></trkpt><trkpt lat="43.91555793997959" lon="4.51547658721664"><ele>121.0</ele><time>2026-04-05T16:02:30.999Z</time></trkpt><trkpt lat="43.91554984007358" lon="4.515362907522966"><ele>121.16666666666667</ele><time>2026-04-05T16:02:31.999Z</time></trkpt><trkpt lat="43.915536812687876" lon="4.515238328793509"><ele>121.33333333333334</ele><time>2026-04-05T16:02:32.999Z</time></trkpt><trkpt lat="43.91553405033411" lon="4.515107488668165"><ele>121.5</ele><time>2026-04-05T16:02:33.999Z</time></trkpt><trkpt lat="43.91552996246692" lon="4.514981166493355"><ele>121.66666666666666</ele><time>2026-04-05T16:02:34.999Z</time></trkpt><trkpt lat="43.91552543902921" lon="4.514864099788593"><ele>121.83333333333333</ele><time>2026-04-05T16:02:35.999Z</time></trkpt><trkpt lat="43.915521795838615" lon="4.51475401581413"><ele>122.0</ele><time>2026-04-05T16:02:36.999Z</time></trkpt><trkpt lat="43.915519208671235" lon="4.5146467398039425"><ele>121.66666666666666</ele><time>2026-04-05T16:02:37.999Z</time></trkpt><trkpt lat="43.91551443710411" lon="4.514534735470548"><ele>121.33333333333333</ele><time>2026-04-05T16:02:38.999Z</time></trkpt><trkpt lat="43.91551076557531" lon="4.51442150307997"><ele>121.0</ele><time>2026-04-05T16:02:39.999Z</time></trkpt><trkpt lat="43.91551336318621" lon="4.514307697941631"><ele>120.66666666666666</ele><time>2026-04-05T16:02:40.999Z</time></trkpt><trkpt lat="43.915514620533976" lon="4.514192252173405"><ele>120.33333333333333</ele><time>2026-04-05T16:02:41.999Z</time></trkpt><trkpt lat="43.91549911476796" lon="4.5140815857486825"><ele>120.0</ele><time>2026-04-05T16:02:42.999Z</time></trkpt><trkpt lat="43.9154663678663" lon="4.5139666071248765"><ele>120.0</ele><time>2026-04-05T16:02:43.999Z</time></trkpt><trkpt lat="43.91543445239453" lon="4.513856935712284"><ele>120.0</ele><time>2026-04-05T16:02:44.999Z</time></trkpt><trkpt lat="43.91540615769327" lon="4.513756790223259"><ele>120.0</ele><time>2026-04-05T16:02:45.999Z</time></trkpt><trkpt lat="43.91539041041856" lon="4.513653795465538"><ele>120.0</ele><time>2026-04-05T16:02:46.999Z</time></trkpt><trkpt lat="43.9153921661533" lon="4.513546181190147"><ele>120.0</ele><time>2026-04-05T16:02:47.999Z</time></trkpt><trkpt lat="43.91540942273765" lon="4.513430257747317"><ele>120.0</ele><time>2026-04-05T16:02:48.999Z</time></trkpt><trkpt lat="43.91543506219837" lon="4.513293412727414"><ele>119.33333333333333</ele><time>2026-04-05T16:02:49.999Z</time></trkpt><trkpt lat="43.915461664584384" lon="4.513170077659507"><ele>118.66666666666666</ele><time>2026-04-05T16:02:50.999Z</time></trkpt><trkpt lat="43.91548022667073" lon="4.513074079571828"><ele>118.0</ele><time>2026-04-05T16:02:51.999Z</time></trkpt><trkpt lat="43.91549355519389" lon="4.512983859340502"><ele>117.33333333333333</ele><time>2026-04-05T16:02:52.999Z</time></trkpt><trkpt lat="43.91550324976938" lon="4.512854985135955"><ele>116.66666666666666</ele><time>2026-04-05T16:02:54.999Z</time></trkpt><trkpt lat="43.91549959035845" lon="4.512741740371036"><ele>116.0</ele><time>2026-04-05T16:02:57Z</time></trkpt><trkpt lat="43.91546589595837" lon="4.51257923574785"><ele>115.83333333333333</ele><time>2026-04-05T16:02:59Z</time></trkpt><trkpt lat="43.91543528042079" lon="4.512455858764114"><ele>115.66666666666666</ele><time>2026-04-05T16:03:00Z</time></trkpt><trkpt lat="43.915405404983844" lon="4.512345337449422"><ele>115.5</ele><time>2026-04-05T16:03:01Z</time></trkpt><trkpt lat="43.915386885840476" lon="4.512242645934822"><ele>115.33333333333334</ele><time>2026-04-05T16:03:02Z</time></trkpt><trkpt lat="43.91536871851723" lon="4.512140787022866"><ele>115.16666666666667</ele><time>2026-04-05T16:03:03Z</time></trkpt><trkpt lat="43.91535464862872" lon="4.512051376816341"><ele>115.0</ele><time>2026-04-05T16:03:04Z</time></trkpt><trkpt lat="43.915337496725236" lon="4.511933872409528"><ele>115.4</ele><time>2026-04-05T16:03:06Z</time></trkpt><trkpt lat="43.91533033006855" lon="4.511819827348629"><ele>115.8</ele><time>2026-04-05T16:03:09Z</time></trkpt><trkpt lat="43.91520247755134" lon="4.511834921178628"><ele>116.19999999999999</ele><time>2026-04-05T16:03:11Z</time></trkpt><trkpt lat="43.915134324125475" lon="4.511981227814803"><ele>116.6</ele><time>2026-04-05T16:03:13Z</time></trkpt><trkpt lat="43.915077318825105" lon="4.51206775790923"><ele>117.0</ele><time>2026-04-05T16:03:14Z</time></trkpt><trkpt lat="43.9149956230383" lon="4.512154990773859"><ele>116.0</ele><time>2026-04-05T16:03:15Z</time></trkpt><trkpt lat="43.91491064671475" lon="4.512245148005567"><ele>114.99999999999999</ele><time>2026-04-05T16:03:16Z</time></trkpt><trkpt lat="43.91484647906953" lon="4.512322230994644"><ele>113.99999999999999</ele><time>2026-04-05T16:03:17Z</time></trkpt><trkpt lat="43.91479035557661" lon="4.512389712715082"><ele>113.0</ele><time>2026-04-05T16:03:18Z</time></trkpt><trkpt lat="43.91471235020696" lon="4.512497515588776"><ele>112.0</ele><time>2026-04-05T16:03:20Z</time></trkpt><trkpt lat="43.9146388177178" lon="4.512523691667623"><ele>112.0</ele><time>2026-04-05T16:03:22Z</time></trkpt><trkpt lat="43.91455036593869" lon="4.512465517759577"><ele>112.0</ele><time>2026-04-05T16:03:24Z</time></trkpt><trkpt lat="43.91447686895027" lon="4.512418176975152"><ele>112.0</ele><time>2026-04-05T16:03:26Z</time></trkpt><trkpt lat="43.91441320897346" lon="4.512374292091061"><ele>112.0</ele><time>2026-04-05T16:03:28Z</time></trkpt><trkpt lat="43.91435132610664" lon="4.512329077464713"><ele>112.0</ele><time>2026-04-05T16:03:30Z</time></trkpt><trkpt lat="43.91439992468853" lon="4.5123864396858915"><ele>112.0</ele><time>2026-04-05T16:03:46Z</time></trkpt><trkpt lat="43.914368830767074" lon="4.512307946807058"><ele>112.0</ele><time>2026-04-05T16:03:49Z</time></trkpt><trkpt lat="43.914306307418386" lon="4.512367751517231"><ele>112.0</ele><time>2026-04-05T16:03:53Z</time></trkpt><trkpt lat="43.91432671701579" lon="4.512451414327752"><ele>112.0</ele><time>2026-04-05T16:03:56Z</time></trkpt></trkseg></trk></gpx>